<?xml version="1.0" encoding="UTF-8" standalone="no" ?>
<gpx xmlns="http://www.topografix.com/GPX/1/1" xmlns:xsi="http://www.w3.org/2001/XMLSchema-instance" xsi:schemaLocation="http://www.topografix.com/GPX/1/1 http://www.topografix.com/GPX/1/1/gpx.xsd" version="1.1" creator="VisuGPX - https://www.visugpx.com">
  <metadata>
    <name>cleton ride 2</name>
  </metadata>
  <trk>
    <name><![CDATA[cleton ride 2_3]]></name>
    <trkseg>
      <trkpt lat="47.2533" lon="-1.66507">
        <ele>71.6</ele>
        <time>2019-08-13T10:53:12Z</time>
      </trkpt>
      <trkpt lat="47.25329" lon="-1.66503">
        <ele>71.8</ele>
        <time>2019-08-13T10:53:11Z</time>
      </trkpt>
      <trkpt lat="47.25329" lon="-1.66486">
        <ele>73.2</ele>
        <time>2019-08-13T10:53:09Z</time>
      </trkpt>
      <trkpt lat="47.25329" lon="-1.66477">
        <ele>74.4</ele>
        <time>2019-08-13T10:53:08Z</time>
      </trkpt>
      <trkpt lat="47.25329" lon="-1.66467">
        <ele>75.4</ele>
        <time>2019-08-13T10:53:07Z</time>
      </trkpt>
      <trkpt lat="47.25328" lon="-1.66431">
        <ele>76.6</ele>
        <time>2019-08-13T10:53:03Z</time>
      </trkpt>
      <trkpt lat="47.25327" lon="-1.66423">
        <ele>76.2</ele>
        <time>2019-08-13T10:53:02Z</time>
      </trkpt>
      <trkpt lat="47.25327" lon="-1.66416">
        <ele>75.6</ele>
        <time>2019-08-13T10:53:01Z</time>
      </trkpt>
      <trkpt lat="47.25327" lon="-1.66393">
        <ele>75</ele>
        <time>2019-08-13T10:52:58Z</time>
      </trkpt>
      <trkpt lat="47.25326" lon="-1.66386">
        <ele>75.2</ele>
        <time>2019-08-13T10:52:57Z</time>
      </trkpt>
      <trkpt lat="47.25324" lon="-1.66347">
        <ele>76</ele>
        <time>2019-08-13T10:52:52Z</time>
      </trkpt>
      <trkpt lat="47.25322" lon="-1.66314">
        <ele>75.8</ele>
        <time>2019-08-13T10:52:46Z</time>
      </trkpt>
      <trkpt lat="47.2532" lon="-1.66309">
        <ele>75.6</ele>
        <time>2019-08-13T10:52:44Z</time>
      </trkpt>
      <trkpt lat="47.2532" lon="-1.66324">
        <ele>76</ele>
        <time>2019-08-13T10:52:37Z</time>
      </trkpt>
      <trkpt lat="47.25321" lon="-1.66363">
        <ele>76.4</ele>
        <time>2019-08-13T10:52:32Z</time>
      </trkpt>
      <trkpt lat="47.2532" lon="-1.66407">
        <ele>75.4</ele>
        <time>2019-08-13T10:52:27Z</time>
      </trkpt>
      <trkpt lat="47.2532" lon="-1.66425">
        <ele>74.2</ele>
        <time>2019-08-13T10:52:25Z</time>
      </trkpt>
      <trkpt lat="47.2532" lon="-1.66434">
        <ele>73.2</ele>
        <time>2019-08-13T10:52:24Z</time>
      </trkpt>
      <trkpt lat="47.25321" lon="-1.66442">
        <ele>72.6</ele>
        <time>2019-08-13T10:52:23Z</time>
      </trkpt>
      <trkpt lat="47.25323" lon="-1.6645">
        <ele>71.6</ele>
        <time>2019-08-13T10:52:22Z</time>
      </trkpt>
      <trkpt lat="47.25324" lon="-1.66458">
        <ele>71</ele>
        <time>2019-08-13T10:52:21Z</time>
      </trkpt>
      <trkpt lat="47.25325" lon="-1.66484">
        <ele>72</ele>
        <time>2019-08-13T10:52:18Z</time>
      </trkpt>
      <trkpt lat="47.25325" lon="-1.66493">
        <ele>73.2</ele>
        <time>2019-08-13T10:52:17Z</time>
      </trkpt>
      <trkpt lat="47.25325" lon="-1.66502">
        <ele>74.6</ele>
        <time>2019-08-13T10:52:16Z</time>
      </trkpt>
      <trkpt lat="47.25325" lon="-1.66511">
        <ele>75.8</ele>
        <time>2019-08-13T10:52:15Z</time>
      </trkpt>
      <trkpt lat="47.25327" lon="-1.66538">
        <ele>77</ele>
        <time>2019-08-13T10:52:12Z</time>
      </trkpt>
      <trkpt lat="47.2533" lon="-1.66625">
        <ele>78.4</ele>
        <time>2019-08-13T10:52:04Z</time>
      </trkpt>
      <trkpt lat="47.25329" lon="-1.66709">
        <ele>78</ele>
        <time>2019-08-13T10:51:57Z</time>
      </trkpt>
      <trkpt lat="47.25328" lon="-1.66734">
        <ele>79.4</ele>
        <time>2019-08-13T10:51:55Z</time>
      </trkpt>
      <trkpt lat="47.25331" lon="-1.66817">
        <ele>80.8</ele>
        <time>2019-08-13T10:51:48Z</time>
      </trkpt>
      <trkpt lat="47.25331" lon="-1.66834">
        <ele>81.4</ele>
        <time>2019-08-13T10:51:46Z</time>
      </trkpt>
      <trkpt lat="47.25332" lon="-1.66841">
        <ele>82</ele>
        <time>2019-08-13T10:51:45Z</time>
      </trkpt>
      <trkpt lat="47.25334" lon="-1.66848">
        <ele>82.6</ele>
        <time>2019-08-13T10:51:44Z</time>
      </trkpt>
      <trkpt lat="47.25342" lon="-1.66859">
        <ele>83.4</ele>
        <time>2019-08-13T10:51:42Z</time>
      </trkpt>
      <trkpt lat="47.25362" lon="-1.66865">
        <ele>83.4</ele>
        <time>2019-08-13T10:51:39Z</time>
      </trkpt>
      <trkpt lat="47.25369" lon="-1.66866">
        <ele>83.2</ele>
        <time>2019-08-13T10:51:38Z</time>
      </trkpt>
      <trkpt lat="47.25401" lon="-1.66864">
        <ele>82</ele>
        <time>2019-08-13T10:51:33Z</time>
      </trkpt>
      <trkpt lat="47.25406" lon="-1.66877">
        <ele>82</ele>
        <time>2019-08-13T10:51:30Z</time>
      </trkpt>
      <trkpt lat="47.25404" lon="-1.66882">
        <ele>82.2</ele>
        <time>2019-08-13T10:51:29Z</time>
      </trkpt>
      <trkpt lat="47.25401" lon="-1.66889">
        <ele>83</ele>
        <time>2019-08-13T10:51:27Z</time>
      </trkpt>
      <trkpt lat="47.25399" lon="-1.66912">
        <ele>83.4</ele>
        <time>2019-08-13T10:51:24Z</time>
      </trkpt>
      <trkpt lat="47.25399" lon="-1.66922">
        <ele>83.2</ele>
        <time>2019-08-13T10:51:23Z</time>
      </trkpt>
      <trkpt lat="47.25407" lon="-1.67005">
        <ele>83</ele>
        <time>2019-08-13T10:51:16Z</time>
      </trkpt>
      <trkpt lat="47.25409" lon="-1.67041">
        <ele>83.4</ele>
        <time>2019-08-13T10:51:13Z</time>
      </trkpt>
      <trkpt lat="47.25411" lon="-1.67086">
        <ele>82.6</ele>
        <time>2019-08-13T10:51:08Z</time>
      </trkpt>
      <trkpt lat="47.25411" lon="-1.67094">
        <ele>82.4</ele>
        <time>2019-08-13T10:51:07Z</time>
      </trkpt>
      <trkpt lat="47.25413" lon="-1.67151">
        <ele>81</ele>
        <time>2019-08-13T10:51:01Z</time>
      </trkpt>
      <trkpt lat="47.25416" lon="-1.67205">
        <ele>80</ele>
        <time>2019-08-13T10:50:55Z</time>
      </trkpt>
      <trkpt lat="47.25417" lon="-1.67225">
        <ele>79.4</ele>
        <time>2019-08-13T10:50:53Z</time>
      </trkpt>
      <trkpt lat="47.25418" lon="-1.67236">
        <ele>79</ele>
        <time>2019-08-13T10:50:52Z</time>
      </trkpt>
      <trkpt lat="47.2542" lon="-1.67269">
        <ele>77.8</ele>
        <time>2019-08-13T10:50:49Z</time>
      </trkpt>
      <trkpt lat="47.25421" lon="-1.67291">
        <ele>77.8</ele>
        <time>2019-08-13T10:50:47Z</time>
      </trkpt>
      <trkpt lat="47.25427" lon="-1.67311">
        <ele>78.4</ele>
        <time>2019-08-13T10:50:45Z</time>
      </trkpt>
      <trkpt lat="47.25432" lon="-1.67318">
        <ele>79</ele>
        <time>2019-08-13T10:50:44Z</time>
      </trkpt>
      <trkpt lat="47.25436" lon="-1.67329">
        <ele>79.4</ele>
        <time>2019-08-13T10:50:43Z</time>
      </trkpt>
      <trkpt lat="47.25446" lon="-1.67341">
        <ele>80.2</ele>
        <time>2019-08-13T10:50:41Z</time>
      </trkpt>
      <trkpt lat="47.25455" lon="-1.67343">
        <ele>80.2</ele>
        <time>2019-08-13T10:50:39Z</time>
      </trkpt>
      <trkpt lat="47.25458" lon="-1.67342">
        <ele>80</ele>
        <time>2019-08-13T10:50:38Z</time>
      </trkpt>
      <trkpt lat="47.25464" lon="-1.67349">
        <ele>80</ele>
        <time>2019-08-13T10:50:37Z</time>
      </trkpt>
      <trkpt lat="47.25478" lon="-1.67373">
        <ele>79.6</ele>
        <time>2019-08-13T10:50:33Z</time>
      </trkpt>
      <trkpt lat="47.2549" lon="-1.6739">
        <ele>79</ele>
        <time>2019-08-13T10:50:30Z</time>
      </trkpt>
      <trkpt lat="47.25492" lon="-1.67396">
        <ele>78.4</ele>
        <time>2019-08-13T10:50:29Z</time>
      </trkpt>
      <trkpt lat="47.25496" lon="-1.67403">
        <ele>77.8</ele>
        <time>2019-08-13T10:50:28Z</time>
      </trkpt>
      <trkpt lat="47.25498" lon="-1.67412">
        <ele>77.4</ele>
        <time>2019-08-13T10:50:27Z</time>
      </trkpt>
      <trkpt lat="47.255" lon="-1.6742">
        <ele>76.6</ele>
        <time>2019-08-13T10:50:26Z</time>
      </trkpt>
      <trkpt lat="47.25506" lon="-1.67468">
        <ele>76.4</ele>
        <time>2019-08-13T10:50:21Z</time>
      </trkpt>
      <trkpt lat="47.25512" lon="-1.67516">
        <ele>75.8</ele>
        <time>2019-08-13T10:50:16Z</time>
      </trkpt>
      <trkpt lat="47.25517" lon="-1.67536">
        <ele>75.4</ele>
        <time>2019-08-13T10:50:14Z</time>
      </trkpt>
      <trkpt lat="47.25524" lon="-1.67571">
        <ele>74.6</ele>
        <time>2019-08-13T10:50:10Z</time>
      </trkpt>
      <trkpt lat="47.25533" lon="-1.67609">
        <ele>74.6</ele>
        <time>2019-08-13T10:50:06Z</time>
      </trkpt>
      <trkpt lat="47.25546" lon="-1.67692">
        <ele>74.2</ele>
        <time>2019-08-13T10:50:00Z</time>
      </trkpt>
      <trkpt lat="47.25548" lon="-1.67754">
        <ele>74.2</ele>
        <time>2019-08-13T10:49:55Z</time>
      </trkpt>
      <trkpt lat="47.25549" lon="-1.67779">
        <ele>74.4</ele>
        <time>2019-08-13T10:49:53Z</time>
      </trkpt>
      <trkpt lat="47.25553" lon="-1.67821">
        <ele>75.2</ele>
        <time>2019-08-13T10:49:49Z</time>
      </trkpt>
      <trkpt lat="47.25555" lon="-1.67824">
        <ele>75.4</ele>
        <time>2019-08-13T10:49:48Z</time>
      </trkpt>
      <trkpt lat="47.25557" lon="-1.67828">
        <ele>75.6</ele>
        <time>2019-08-13T10:49:47Z</time>
      </trkpt>
      <trkpt lat="47.25567" lon="-1.67862">
        <ele>76.6</ele>
        <time>2019-08-13T10:49:45Z</time>
      </trkpt>
      <trkpt lat="47.25572" lon="-1.67891">
        <ele>78.4</ele>
        <time>2019-08-13T10:49:43Z</time>
      </trkpt>
      <trkpt lat="47.25574" lon="-1.67906">
        <ele>79.4</ele>
        <time>2019-08-13T10:49:42Z</time>
      </trkpt>
      <trkpt lat="47.25578" lon="-1.67944">
        <ele>80.2</ele>
        <time>2019-08-13T10:49:39Z</time>
      </trkpt>
      <trkpt lat="47.25576" lon="-1.67981">
        <ele>80.4</ele>
        <time>2019-08-13T10:49:36Z</time>
      </trkpt>
      <trkpt lat="47.25577" lon="-1.68009">
        <ele>80.2</ele>
        <time>2019-08-13T10:49:33Z</time>
      </trkpt>
      <trkpt lat="47.25581" lon="-1.68049">
        <ele>80.8</ele>
        <time>2019-08-13T10:49:28Z</time>
      </trkpt>
      <trkpt lat="47.25588" lon="-1.6807">
        <ele>80.2</ele>
        <time>2019-08-13T10:49:25Z</time>
      </trkpt>
      <trkpt lat="47.25591" lon="-1.68087">
        <ele>80.2</ele>
        <time>2019-08-13T10:49:23Z</time>
      </trkpt>
      <trkpt lat="47.25601" lon="-1.68119">
        <ele>81.2</ele>
        <time>2019-08-13T10:49:19Z</time>
      </trkpt>
      <trkpt lat="47.25608" lon="-1.68127">
        <ele>81.8</ele>
        <time>2019-08-13T10:49:17Z</time>
      </trkpt>
      <trkpt lat="47.25617" lon="-1.68141">
        <ele>82</ele>
        <time>2019-08-13T10:49:15Z</time>
      </trkpt>
      <trkpt lat="47.2563" lon="-1.68185">
        <ele>82</ele>
        <time>2019-08-13T10:49:10Z</time>
      </trkpt>
      <trkpt lat="47.25637" lon="-1.68226">
        <ele>82</ele>
        <time>2019-08-13T10:49:05Z</time>
      </trkpt>
      <trkpt lat="47.25659" lon="-1.68282">
        <ele>82</ele>
        <time>2019-08-13T10:48:58Z</time>
      </trkpt>
      <trkpt lat="47.25675" lon="-1.68328">
        <ele>82.4</ele>
        <time>2019-08-13T10:48:50Z</time>
      </trkpt>
      <trkpt lat="47.25678" lon="-1.68337">
        <ele>81.6</ele>
        <time>2019-08-13T10:48:48Z</time>
      </trkpt>
      <trkpt lat="47.2568" lon="-1.68341">
        <ele>81.4</ele>
        <time>2019-08-13T10:48:47Z</time>
      </trkpt>
      <trkpt lat="47.2568" lon="-1.68355">
        <ele>80.2</ele>
        <time>2019-08-13T10:48:44Z</time>
      </trkpt>
      <trkpt lat="47.2567" lon="-1.68384">
        <ele>78.6</ele>
        <time>2019-08-13T10:48:39Z</time>
      </trkpt>
      <trkpt lat="47.25667" lon="-1.68455">
        <ele>79</ele>
        <time>2019-08-13T10:48:32Z</time>
      </trkpt>
      <trkpt lat="47.25663" lon="-1.68499">
        <ele>80.6</ele>
        <time>2019-08-13T10:48:27Z</time>
      </trkpt>
      <trkpt lat="47.25663" lon="-1.68563">
        <ele>81.8</ele>
        <time>2019-08-13T10:48:21Z</time>
      </trkpt>
      <trkpt lat="47.25664" lon="-1.68611">
        <ele>82.4</ele>
        <time>2019-08-13T10:48:16Z</time>
      </trkpt>
      <trkpt lat="47.25659" lon="-1.68649">
        <ele>82.2</ele>
        <time>2019-08-13T10:48:12Z</time>
      </trkpt>
      <trkpt lat="47.25657" lon="-1.6867">
        <ele>82.4</ele>
        <time>2019-08-13T10:48:10Z</time>
      </trkpt>
      <trkpt lat="47.25672" lon="-1.68731">
        <ele>81.8</ele>
        <time>2019-08-13T10:48:03Z</time>
      </trkpt>
      <trkpt lat="47.25684" lon="-1.68766">
        <ele>80.6</ele>
        <time>2019-08-13T10:47:59Z</time>
      </trkpt>
      <trkpt lat="47.25701" lon="-1.68822">
        <ele>78.8</ele>
        <time>2019-08-13T10:47:52Z</time>
      </trkpt>
      <trkpt lat="47.25707" lon="-1.68834">
        <ele>79</ele>
        <time>2019-08-13T10:47:50Z</time>
      </trkpt>
      <trkpt lat="47.25711" lon="-1.68846">
        <ele>79.2</ele>
        <time>2019-08-13T10:47:48Z</time>
      </trkpt>
      <trkpt lat="47.2571" lon="-1.68853">
        <ele>79.2</ele>
        <time>2019-08-13T10:47:47Z</time>
      </trkpt>
      <trkpt lat="47.25707" lon="-1.6886">
        <ele>79.4</ele>
        <time>2019-08-13T10:47:46Z</time>
      </trkpt>
      <trkpt lat="47.25681" lon="-1.68883">
        <ele>80.2</ele>
        <time>2019-08-13T10:47:42Z</time>
      </trkpt>
      <trkpt lat="47.2567" lon="-1.68896">
        <ele>80.6</ele>
        <time>2019-08-13T10:47:40Z</time>
      </trkpt>
      <trkpt lat="47.25622" lon="-1.68945">
        <ele>81.2</ele>
        <time>2019-08-13T10:47:32Z</time>
      </trkpt>
      <trkpt lat="47.25616" lon="-1.6895">
        <ele>81.2</ele>
        <time>2019-08-13T10:47:31Z</time>
      </trkpt>
      <trkpt lat="47.2557" lon="-1.68998">
        <ele>80.2</ele>
        <time>2019-08-13T10:47:23Z</time>
      </trkpt>
      <trkpt lat="47.25564" lon="-1.69006">
        <ele>80.2</ele>
        <time>2019-08-13T10:47:22Z</time>
      </trkpt>
      <trkpt lat="47.25558" lon="-1.69016">
        <ele>80.4</ele>
        <time>2019-08-13T10:47:21Z</time>
      </trkpt>
      <trkpt lat="47.2555" lon="-1.69037">
        <ele>81</ele>
        <time>2019-08-13T10:47:19Z</time>
      </trkpt>
      <trkpt lat="47.25548" lon="-1.69047">
        <ele>81.2</ele>
        <time>2019-08-13T10:47:18Z</time>
      </trkpt>
      <trkpt lat="47.25547" lon="-1.69055">
        <ele>81.6</ele>
        <time>2019-08-13T10:47:17Z</time>
      </trkpt>
      <trkpt lat="47.25549" lon="-1.69136">
        <ele>82.6</ele>
        <time>2019-08-13T10:47:10Z</time>
      </trkpt>
      <trkpt lat="47.25564" lon="-1.69214">
        <ele>82.4</ele>
        <time>2019-08-13T10:47:02Z</time>
      </trkpt>
      <trkpt lat="47.25563" lon="-1.69232">
        <ele>82.6</ele>
        <time>2019-08-13T10:47:00Z</time>
      </trkpt>
      <trkpt lat="47.25555" lon="-1.69265">
        <ele>83.2</ele>
        <time>2019-08-13T10:46:55Z</time>
      </trkpt>
      <trkpt lat="47.25553" lon="-1.69321">
        <ele>83.6</ele>
        <time>2019-08-13T10:46:49Z</time>
      </trkpt>
      <trkpt lat="47.25546" lon="-1.69345">
        <ele>83.4</ele>
        <time>2019-08-13T10:46:46Z</time>
      </trkpt>
      <trkpt lat="47.25535" lon="-1.69361">
        <ele>82.6</ele>
        <time>2019-08-13T10:46:44Z</time>
      </trkpt>
      <trkpt lat="47.25521" lon="-1.69386">
        <ele>82.2</ele>
        <time>2019-08-13T10:46:41Z</time>
      </trkpt>
      <trkpt lat="47.25509" lon="-1.694">
        <ele>82</ele>
        <time>2019-08-13T10:46:39Z</time>
      </trkpt>
      <trkpt lat="47.25501" lon="-1.69406">
        <ele>82.4</ele>
        <time>2019-08-13T10:46:38Z</time>
      </trkpt>
      <trkpt lat="47.25493" lon="-1.69414">
        <ele>82.8</ele>
        <time>2019-08-13T10:46:37Z</time>
      </trkpt>
      <trkpt lat="47.25479" lon="-1.69427">
        <ele>83.6</ele>
        <time>2019-08-13T10:46:35Z</time>
      </trkpt>
      <trkpt lat="47.25473" lon="-1.69433">
        <ele>84</ele>
        <time>2019-08-13T10:46:34Z</time>
      </trkpt>
      <trkpt lat="47.25461" lon="-1.69457">
        <ele>85</ele>
        <time>2019-08-13T10:46:30Z</time>
      </trkpt>
      <trkpt lat="47.25458" lon="-1.69484">
        <ele>86.4</ele>
        <time>2019-08-13T10:46:27Z</time>
      </trkpt>
      <trkpt lat="47.25455" lon="-1.69494">
        <ele>87.2</ele>
        <time>2019-08-13T10:46:26Z</time>
      </trkpt>
      <trkpt lat="47.25452" lon="-1.69504">
        <ele>87.4</ele>
        <time>2019-08-13T10:46:25Z</time>
      </trkpt>
      <trkpt lat="47.25447" lon="-1.69534">
        <ele>86.4</ele>
        <time>2019-08-13T10:46:22Z</time>
      </trkpt>
      <trkpt lat="47.2544" lon="-1.69575">
        <ele>85.8</ele>
        <time>2019-08-13T10:46:18Z</time>
      </trkpt>
      <trkpt lat="47.25441" lon="-1.69612">
        <ele>86.2</ele>
        <time>2019-08-13T10:46:14Z</time>
      </trkpt>
      <trkpt lat="47.25448" lon="-1.69631">
        <ele>88</ele>
        <time>2019-08-13T10:46:12Z</time>
      </trkpt>
      <trkpt lat="47.25475" lon="-1.69651">
        <ele>89.8</ele>
        <time>2019-08-13T10:46:08Z</time>
      </trkpt>
      <trkpt lat="47.2552" lon="-1.69672">
        <ele>90.2</ele>
        <time>2019-08-13T10:46:02Z</time>
      </trkpt>
      <trkpt lat="47.25579" lon="-1.69679">
        <ele>89.8</ele>
        <time>2019-08-13T10:45:55Z</time>
      </trkpt>
      <trkpt lat="47.25632" lon="-1.69694">
        <ele>89.2</ele>
        <time>2019-08-13T10:45:48Z</time>
      </trkpt>
      <trkpt lat="47.2564" lon="-1.69701">
        <ele>89.6</ele>
        <time>2019-08-13T10:45:47Z</time>
      </trkpt>
      <trkpt lat="47.25657" lon="-1.69721">
        <ele>91.2</ele>
        <time>2019-08-13T10:45:45Z</time>
      </trkpt>
      <trkpt lat="47.25666" lon="-1.69736">
        <ele>92.2</ele>
        <time>2019-08-13T10:45:43Z</time>
      </trkpt>
      <trkpt lat="47.25672" lon="-1.69759">
        <ele>93</ele>
        <time>2019-08-13T10:45:41Z</time>
      </trkpt>
      <trkpt lat="47.25674" lon="-1.69772">
        <ele>93.6</ele>
        <time>2019-08-13T10:45:40Z</time>
      </trkpt>
      <trkpt lat="47.25678" lon="-1.69798">
        <ele>94.8</ele>
        <time>2019-08-13T10:45:38Z</time>
      </trkpt>
      <trkpt lat="47.25691" lon="-1.69883">
        <ele>95.8</ele>
        <time>2019-08-13T10:45:31Z</time>
      </trkpt>
      <trkpt lat="47.25707" lon="-1.69969">
        <ele>96.2</ele>
        <time>2019-08-13T10:45:24Z</time>
      </trkpt>
      <trkpt lat="47.25719" lon="-1.70028">
        <ele>97.2</ele>
        <time>2019-08-13T10:45:18Z</time>
      </trkpt>
      <trkpt lat="47.25724" lon="-1.70045">
        <ele>96.6</ele>
        <time>2019-08-13T10:45:16Z</time>
      </trkpt>
      <trkpt lat="47.25727" lon="-1.70053">
        <ele>96</ele>
        <time>2019-08-13T10:45:15Z</time>
      </trkpt>
      <trkpt lat="47.25731" lon="-1.7007">
        <ele>94.2</ele>
        <time>2019-08-13T10:45:13Z</time>
      </trkpt>
      <trkpt lat="47.25736" lon="-1.70087">
        <ele>92.8</ele>
        <time>2019-08-13T10:45:11Z</time>
      </trkpt>
      <trkpt lat="47.25745" lon="-1.70114">
        <ele>91</ele>
        <time>2019-08-13T10:45:08Z</time>
      </trkpt>
      <trkpt lat="47.25769" lon="-1.70191">
        <ele>91.6</ele>
        <time>2019-08-13T10:45:01Z</time>
      </trkpt>
      <trkpt lat="47.25772" lon="-1.70202">
        <ele>91.4</ele>
        <time>2019-08-13T10:45:00Z</time>
      </trkpt>
      <trkpt lat="47.25795" lon="-1.7028">
        <ele>90.4</ele>
        <time>2019-08-13T10:44:53Z</time>
      </trkpt>
      <trkpt lat="47.25794" lon="-1.70302">
        <ele>91.8</ele>
        <time>2019-08-13T10:44:51Z</time>
      </trkpt>
      <trkpt lat="47.25785" lon="-1.70322">
        <ele>93.8</ele>
        <time>2019-08-13T10:44:49Z</time>
      </trkpt>
      <trkpt lat="47.25771" lon="-1.70336">
        <ele>95</ele>
        <time>2019-08-13T10:44:47Z</time>
      </trkpt>
      <trkpt lat="47.25749" lon="-1.70353">
        <ele>96</ele>
        <time>2019-08-13T10:44:44Z</time>
      </trkpt>
      <trkpt lat="47.25743" lon="-1.70359">
        <ele>96.6</ele>
        <time>2019-08-13T10:44:43Z</time>
      </trkpt>
      <trkpt lat="47.25691" lon="-1.70399">
        <ele>98</ele>
        <time>2019-08-13T10:44:36Z</time>
      </trkpt>
      <trkpt lat="47.25653" lon="-1.7042">
        <ele>97.8</ele>
        <time>2019-08-13T10:44:33Z</time>
      </trkpt>
      <trkpt lat="47.25611" lon="-1.70461">
        <ele>97.4</ele>
        <time>2019-08-13T10:44:27Z</time>
      </trkpt>
      <trkpt lat="47.25574" lon="-1.70532">
        <ele>97</ele>
        <time>2019-08-13T10:44:19Z</time>
      </trkpt>
      <trkpt lat="47.25569" lon="-1.70553">
        <ele>96.8</ele>
        <time>2019-08-13T10:44:17Z</time>
      </trkpt>
      <trkpt lat="47.25567" lon="-1.70586">
        <ele>96.6</ele>
        <time>2019-08-13T10:44:14Z</time>
      </trkpt>
      <trkpt lat="47.25574" lon="-1.70628">
        <ele>96.2</ele>
        <time>2019-08-13T10:44:10Z</time>
      </trkpt>
      <trkpt lat="47.25588" lon="-1.70706">
        <ele>96.2</ele>
        <time>2019-08-13T10:44:03Z</time>
      </trkpt>
      <trkpt lat="47.25587" lon="-1.70731">
        <ele>97</ele>
        <time>2019-08-13T10:44:00Z</time>
      </trkpt>
      <trkpt lat="47.25576" lon="-1.70739">
        <ele>96.6</ele>
        <time>2019-08-13T10:43:58Z</time>
      </trkpt>
      <trkpt lat="47.25569" lon="-1.7074">
        <ele>96</ele>
        <time>2019-08-13T10:43:57Z</time>
      </trkpt>
      <trkpt lat="47.25518" lon="-1.70737">
        <ele>95.4</ele>
        <time>2019-08-13T10:43:50Z</time>
      </trkpt>
      <trkpt lat="47.25462" lon="-1.70732">
        <ele>95.8</ele>
        <time>2019-08-13T10:43:44Z</time>
      </trkpt>
      <trkpt lat="47.25407" lon="-1.70731">
        <ele>95.2</ele>
        <time>2019-08-13T10:43:35Z</time>
      </trkpt>
      <trkpt lat="47.25396" lon="-1.70731">
        <ele>95</ele>
        <time>2019-08-13T10:43:33Z</time>
      </trkpt>
      <trkpt lat="47.25355" lon="-1.70733">
        <ele>93.8</ele>
        <time>2019-08-13T10:43:26Z</time>
      </trkpt>
      <trkpt lat="47.253" lon="-1.70741">
        <ele>93.4</ele>
        <time>2019-08-13T10:43:18Z</time>
      </trkpt>
      <trkpt lat="47.25247" lon="-1.70757">
        <ele>94</ele>
        <time>2019-08-13T10:43:10Z</time>
      </trkpt>
      <trkpt lat="47.25225" lon="-1.70771">
        <ele>93</ele>
        <time>2019-08-13T10:43:06Z</time>
      </trkpt>
      <trkpt lat="47.25214" lon="-1.70779">
        <ele>91.8</ele>
        <time>2019-08-13T10:43:04Z</time>
      </trkpt>
      <trkpt lat="47.25208" lon="-1.70781">
        <ele>91.2</ele>
        <time>2019-08-13T10:43:03Z</time>
      </trkpt>
      <trkpt lat="47.25196" lon="-1.70782">
        <ele>90.4</ele>
        <time>2019-08-13T10:43:01Z</time>
      </trkpt>
      <trkpt lat="47.25185" lon="-1.7078">
        <ele>90</ele>
        <time>2019-08-13T10:42:59Z</time>
      </trkpt>
      <trkpt lat="47.25167" lon="-1.70771">
        <ele>89.2</ele>
        <time>2019-08-13T10:42:56Z</time>
      </trkpt>
      <trkpt lat="47.25151" lon="-1.70761">
        <ele>87.8</ele>
        <time>2019-08-13T10:42:53Z</time>
      </trkpt>
      <trkpt lat="47.25114" lon="-1.70744">
        <ele>86.6</ele>
        <time>2019-08-13T10:42:47Z</time>
      </trkpt>
      <trkpt lat="47.25091" lon="-1.70732">
        <ele>85.4</ele>
        <time>2019-08-13T10:42:43Z</time>
      </trkpt>
      <trkpt lat="47.25085" lon="-1.7073">
        <ele>85</ele>
        <time>2019-08-13T10:42:42Z</time>
      </trkpt>
      <trkpt lat="47.25067" lon="-1.70723">
        <ele>84.2</ele>
        <time>2019-08-13T10:42:39Z</time>
      </trkpt>
      <trkpt lat="47.25048" lon="-1.70717">
        <ele>83</ele>
        <time>2019-08-13T10:42:36Z</time>
      </trkpt>
      <trkpt lat="47.25033" lon="-1.70714">
        <ele>82.4</ele>
        <time>2019-08-13T10:42:34Z</time>
      </trkpt>
      <trkpt lat="47.25011" lon="-1.70705">
        <ele>81.6</ele>
        <time>2019-08-13T10:42:31Z</time>
      </trkpt>
      <trkpt lat="47.24983" lon="-1.70693">
        <ele>80.6</ele>
        <time>2019-08-13T10:42:27Z</time>
      </trkpt>
      <trkpt lat="47.24964" lon="-1.70685">
        <ele>79.4</ele>
        <time>2019-08-13T10:42:24Z</time>
      </trkpt>
      <trkpt lat="47.24944" lon="-1.70676">
        <ele>78.4</ele>
        <time>2019-08-13T10:42:21Z</time>
      </trkpt>
      <trkpt lat="47.24908" lon="-1.70662">
        <ele>77.2</ele>
        <time>2019-08-13T10:42:16Z</time>
      </trkpt>
      <trkpt lat="47.24869" lon="-1.70649">
        <ele>75.8</ele>
        <time>2019-08-13T10:42:11Z</time>
      </trkpt>
      <trkpt lat="47.24846" lon="-1.70639">
        <ele>76</ele>
        <time>2019-08-13T10:42:08Z</time>
      </trkpt>
      <trkpt lat="47.24801" lon="-1.70618">
        <ele>76.6</ele>
        <time>2019-08-13T10:42:02Z</time>
      </trkpt>
      <trkpt lat="47.24784" lon="-1.70611">
        <ele>76.8</ele>
        <time>2019-08-13T10:42:00Z</time>
      </trkpt>
      <trkpt lat="47.24728" lon="-1.70595">
        <ele>77.4</ele>
        <time>2019-08-13T10:41:54Z</time>
      </trkpt>
      <trkpt lat="47.24709" lon="-1.70593">
        <ele>77.2</ele>
        <time>2019-08-13T10:41:52Z</time>
      </trkpt>
      <trkpt lat="47.24691" lon="-1.70596">
        <ele>77.2</ele>
        <time>2019-08-13T10:41:50Z</time>
      </trkpt>
      <trkpt lat="47.24682" lon="-1.70598">
        <ele>76.8</ele>
        <time>2019-08-13T10:41:49Z</time>
      </trkpt>
      <trkpt lat="47.24675" lon="-1.70602">
        <ele>76.4</ele>
        <time>2019-08-13T10:41:47Z</time>
      </trkpt>
      <trkpt lat="47.24661" lon="-1.70611">
        <ele>76</ele>
        <time>2019-08-13T10:41:45Z</time>
      </trkpt>
      <trkpt lat="47.2462" lon="-1.70647">
        <ele>74.8</ele>
        <time>2019-08-13T10:41:39Z</time>
      </trkpt>
      <trkpt lat="47.24608" lon="-1.70658">
        <ele>74.6</ele>
        <time>2019-08-13T10:41:37Z</time>
      </trkpt>
      <trkpt lat="47.24556" lon="-1.70692">
        <ele>74.6</ele>
        <time>2019-08-13T10:41:28Z</time>
      </trkpt>
      <trkpt lat="47.24502" lon="-1.70721">
        <ele>73.6</ele>
        <time>2019-08-13T10:41:19Z</time>
      </trkpt>
      <trkpt lat="47.24496" lon="-1.70727">
        <ele>73.6</ele>
        <time>2019-08-13T10:41:17Z</time>
      </trkpt>
      <trkpt lat="47.24474" lon="-1.70736">
        <ele>73.6</ele>
        <time>2019-08-13T10:41:13Z</time>
      </trkpt>
      <trkpt lat="47.24449" lon="-1.70745">
        <ele>72.4</ele>
        <time>2019-08-13T10:41:09Z</time>
      </trkpt>
      <trkpt lat="47.24423" lon="-1.70754">
        <ele>71.4</ele>
        <time>2019-08-13T10:41:05Z</time>
      </trkpt>
      <trkpt lat="47.24412" lon="-1.70758">
        <ele>70.2</ele>
        <time>2019-08-13T10:41:03Z</time>
      </trkpt>
      <trkpt lat="47.24381" lon="-1.70768">
        <ele>68.8</ele>
        <time>2019-08-13T10:40:58Z</time>
      </trkpt>
      <trkpt lat="47.24339" lon="-1.70782">
        <ele>67.6</ele>
        <time>2019-08-13T10:40:51Z</time>
      </trkpt>
      <trkpt lat="47.24307" lon="-1.70793">
        <ele>66.6</ele>
        <time>2019-08-13T10:40:46Z</time>
      </trkpt>
      <trkpt lat="47.24287" lon="-1.70798">
        <ele>65.6</ele>
        <time>2019-08-13T10:40:43Z</time>
      </trkpt>
      <trkpt lat="47.24244" lon="-1.70814">
        <ele>64.4</ele>
        <time>2019-08-13T10:40:36Z</time>
      </trkpt>
      <trkpt lat="47.24221" lon="-1.70833">
        <ele>63.4</ele>
        <time>2019-08-13T10:40:32Z</time>
      </trkpt>
      <trkpt lat="47.24192" lon="-1.70861">
        <ele>62.4</ele>
        <time>2019-08-13T10:40:27Z</time>
      </trkpt>
      <trkpt lat="47.24175" lon="-1.70877">
        <ele>61.6</ele>
        <time>2019-08-13T10:40:24Z</time>
      </trkpt>
      <trkpt lat="47.24164" lon="-1.70885">
        <ele>61.2</ele>
        <time>2019-08-13T10:40:22Z</time>
      </trkpt>
      <trkpt lat="47.24122" lon="-1.70896">
        <ele>60.2</ele>
        <time>2019-08-13T10:40:17Z</time>
      </trkpt>
      <trkpt lat="47.24106" lon="-1.70901">
        <ele>59.8</ele>
        <time>2019-08-13T10:40:15Z</time>
      </trkpt>
      <trkpt lat="47.24088" lon="-1.70915">
        <ele>59.2</ele>
        <time>2019-08-13T10:40:12Z</time>
      </trkpt>
      <trkpt lat="47.24073" lon="-1.7093">
        <ele>58.8</ele>
        <time>2019-08-13T10:40:07Z</time>
      </trkpt>
      <trkpt lat="47.24072" lon="-1.70931">
        <ele>59</ele>
        <time>2019-08-13T10:40:06Z</time>
      </trkpt>
      <trkpt lat="47.2407" lon="-1.70928">
        <ele>60.2</ele>
        <time>2019-08-13T10:40:04Z</time>
      </trkpt>
      <trkpt lat="47.24073" lon="-1.70877">
        <ele>61.6</ele>
        <time>2019-08-13T10:39:58Z</time>
      </trkpt>
      <trkpt lat="47.24073" lon="-1.70826">
        <ele>61.6</ele>
        <time>2019-08-13T10:39:54Z</time>
      </trkpt>
      <trkpt lat="47.24077" lon="-1.7078">
        <ele>62.2</ele>
        <time>2019-08-13T10:39:50Z</time>
      </trkpt>
      <trkpt lat="47.24081" lon="-1.70764">
        <ele>62.8</ele>
        <time>2019-08-13T10:39:48Z</time>
      </trkpt>
      <trkpt lat="47.24089" lon="-1.70746">
        <ele>62.8</ele>
        <time>2019-08-13T10:39:46Z</time>
      </trkpt>
      <trkpt lat="47.24111" lon="-1.70686">
        <ele>64</ele>
        <time>2019-08-13T10:39:40Z</time>
      </trkpt>
      <trkpt lat="47.24115" lon="-1.70654">
        <ele>64.8</ele>
        <time>2019-08-13T10:39:37Z</time>
      </trkpt>
      <trkpt lat="47.24121" lon="-1.70609">
        <ele>65.4</ele>
        <time>2019-08-13T10:39:33Z</time>
      </trkpt>
      <trkpt lat="47.24125" lon="-1.70557">
        <ele>66.6</ele>
        <time>2019-08-13T10:39:28Z</time>
      </trkpt>
      <trkpt lat="47.24126" lon="-1.70504">
        <ele>67.6</ele>
        <time>2019-08-13T10:39:23Z</time>
      </trkpt>
      <trkpt lat="47.24127" lon="-1.70466">
        <ele>69.2</ele>
        <time>2019-08-13T10:39:19Z</time>
      </trkpt>
      <trkpt lat="47.24134" lon="-1.70398">
        <ele>72.2</ele>
        <time>2019-08-13T10:39:12Z</time>
      </trkpt>
      <trkpt lat="47.24137" lon="-1.70378">
        <ele>71.2</ele>
        <time>2019-08-13T10:39:10Z</time>
      </trkpt>
      <trkpt lat="47.24138" lon="-1.7034">
        <ele>72.6</ele>
        <time>2019-08-13T10:39:06Z</time>
      </trkpt>
      <trkpt lat="47.24137" lon="-1.70331">
        <ele>72.6</ele>
        <time>2019-08-13T10:39:05Z</time>
      </trkpt>
      <trkpt lat="47.24138" lon="-1.7032">
        <ele>72.8</ele>
        <time>2019-08-13T10:39:04Z</time>
      </trkpt>
      <trkpt lat="47.24135" lon="-1.70282">
        <ele>73.6</ele>
        <time>2019-08-13T10:39:00Z</time>
      </trkpt>
      <trkpt lat="47.24132" lon="-1.70262">
        <ele>73.6</ele>
        <time>2019-08-13T10:38:58Z</time>
      </trkpt>
      <trkpt lat="47.24117" lon="-1.70184">
        <ele>73.4</ele>
        <time>2019-08-13T10:38:48Z</time>
      </trkpt>
      <trkpt lat="47.2411" lon="-1.70152">
        <ele>73</ele>
        <time>2019-08-13T10:38:44Z</time>
      </trkpt>
      <trkpt lat="47.24105" lon="-1.70139">
        <ele>73</ele>
        <time>2019-08-13T10:38:42Z</time>
      </trkpt>
      <trkpt lat="47.241" lon="-1.70125">
        <ele>73.2</ele>
        <time>2019-08-13T10:38:40Z</time>
      </trkpt>
      <trkpt lat="47.24096" lon="-1.70109">
        <ele>73.2</ele>
        <time>2019-08-13T10:38:38Z</time>
      </trkpt>
      <trkpt lat="47.24089" lon="-1.70057">
        <ele>73.2</ele>
        <time>2019-08-13T10:38:32Z</time>
      </trkpt>
      <trkpt lat="47.24086" lon="-1.70041">
        <ele>73.6</ele>
        <time>2019-08-13T10:38:30Z</time>
      </trkpt>
      <trkpt lat="47.24079" lon="-1.70017">
        <ele>73.2</ele>
        <time>2019-08-13T10:38:27Z</time>
      </trkpt>
      <trkpt lat="47.24076" lon="-1.7">
        <ele>72.6</ele>
        <time>2019-08-13T10:38:25Z</time>
      </trkpt>
      <trkpt lat="47.24066" lon="-1.69958">
        <ele>72.4</ele>
        <time>2019-08-13T10:38:20Z</time>
      </trkpt>
      <trkpt lat="47.24058" lon="-1.69936">
        <ele>72.6</ele>
        <time>2019-08-13T10:38:17Z</time>
      </trkpt>
      <trkpt lat="47.24054" lon="-1.69918">
        <ele>72.2</ele>
        <time>2019-08-13T10:38:15Z</time>
      </trkpt>
      <trkpt lat="47.24052" lon="-1.69899">
        <ele>72</ele>
        <time>2019-08-13T10:38:13Z</time>
      </trkpt>
      <trkpt lat="47.24053" lon="-1.69874">
        <ele>71.2</ele>
        <time>2019-08-13T10:38:10Z</time>
      </trkpt>
      <trkpt lat="47.24048" lon="-1.69851">
        <ele>72</ele>
        <time>2019-08-13T10:38:07Z</time>
      </trkpt>
      <trkpt lat="47.24045" lon="-1.69834">
        <ele>71.4</ele>
        <time>2019-08-13T10:38:05Z</time>
      </trkpt>
      <trkpt lat="47.2404" lon="-1.69818">
        <ele>70.2</ele>
        <time>2019-08-13T10:38:03Z</time>
      </trkpt>
      <trkpt lat="47.24033" lon="-1.69793">
        <ele>69</ele>
        <time>2019-08-13T10:38:00Z</time>
      </trkpt>
      <trkpt lat="47.24012" lon="-1.6973">
        <ele>68.6</ele>
        <time>2019-08-13T10:37:53Z</time>
      </trkpt>
      <trkpt lat="47.24004" lon="-1.697">
        <ele>68.6</ele>
        <time>2019-08-13T10:37:50Z</time>
      </trkpt>
      <trkpt lat="47.23992" lon="-1.69662">
        <ele>68.8</ele>
        <time>2019-08-13T10:37:46Z</time>
      </trkpt>
      <trkpt lat="47.23984" lon="-1.69638">
        <ele>69.2</ele>
        <time>2019-08-13T10:37:43Z</time>
      </trkpt>
      <trkpt lat="47.23978" lon="-1.69627">
        <ele>69.6</ele>
        <time>2019-08-13T10:37:41Z</time>
      </trkpt>
      <trkpt lat="47.23972" lon="-1.69622">
        <ele>69.4</ele>
        <time>2019-08-13T10:37:39Z</time>
      </trkpt>
      <trkpt lat="47.23964" lon="-1.69629">
        <ele>69</ele>
        <time>2019-08-13T10:37:37Z</time>
      </trkpt>
      <trkpt lat="47.23937" lon="-1.69675">
        <ele>68</ele>
        <time>2019-08-13T10:37:32Z</time>
      </trkpt>
      <trkpt lat="47.23923" lon="-1.6972">
        <ele>67.8</ele>
        <time>2019-08-13T10:37:28Z</time>
      </trkpt>
      <trkpt lat="47.239" lon="-1.69799">
        <ele>66.8</ele>
        <time>2019-08-13T10:37:21Z</time>
      </trkpt>
      <trkpt lat="47.23888" lon="-1.69833">
        <ele>65.8</ele>
        <time>2019-08-13T10:37:18Z</time>
      </trkpt>
      <trkpt lat="47.23875" lon="-1.69867">
        <ele>65.2</ele>
        <time>2019-08-13T10:37:15Z</time>
      </trkpt>
      <trkpt lat="47.23847" lon="-1.69934">
        <ele>65</ele>
        <time>2019-08-13T10:37:09Z</time>
      </trkpt>
      <trkpt lat="47.23838" lon="-1.69953">
        <ele>65</ele>
        <time>2019-08-13T10:37:07Z</time>
      </trkpt>
      <trkpt lat="47.23817" lon="-1.69982">
        <ele>64.6</ele>
        <time>2019-08-13T10:37:03Z</time>
      </trkpt>
      <trkpt lat="47.23788" lon="-1.70005">
        <ele>63.6</ele>
        <time>2019-08-13T10:36:59Z</time>
      </trkpt>
      <trkpt lat="47.23738" lon="-1.70038">
        <ele>63.4</ele>
        <time>2019-08-13T10:36:51Z</time>
      </trkpt>
      <trkpt lat="47.23722" lon="-1.70047">
        <ele>63.4</ele>
        <time>2019-08-13T10:36:50Z</time>
      </trkpt>
      <trkpt lat="47.23667" lon="-1.70085">
        <ele>63.2</ele>
        <time>2019-08-13T10:36:42Z</time>
      </trkpt>
      <trkpt lat="47.23614" lon="-1.70115">
        <ele>62.8</ele>
        <time>2019-08-13T10:36:36Z</time>
      </trkpt>
      <trkpt lat="47.23557" lon="-1.70154">
        <ele>63</ele>
        <time>2019-08-13T10:36:28Z</time>
      </trkpt>
      <trkpt lat="47.23546" lon="-1.70167">
        <ele>63</ele>
        <time>2019-08-13T10:36:26Z</time>
      </trkpt>
      <trkpt lat="47.23509" lon="-1.70224">
        <ele>63</ele>
        <time>2019-08-13T10:36:18Z</time>
      </trkpt>
      <trkpt lat="47.23503" lon="-1.7023">
        <ele>62.4</ele>
        <time>2019-08-13T10:36:15Z</time>
      </trkpt>
      <trkpt lat="47.235" lon="-1.7022">
        <ele>61.6</ele>
        <time>2019-08-13T10:36:13Z</time>
      </trkpt>
      <trkpt lat="47.23495" lon="-1.7018">
        <ele>62</ele>
        <time>2019-08-13T10:36:08Z</time>
      </trkpt>
      <trkpt lat="47.23488" lon="-1.7015">
        <ele>62.4</ele>
        <time>2019-08-13T10:36:04Z</time>
      </trkpt>
      <trkpt lat="47.23478" lon="-1.70124">
        <ele>63.4</ele>
        <time>2019-08-13T10:36:00Z</time>
      </trkpt>
      <trkpt lat="47.23476" lon="-1.70119">
        <ele>63.8</ele>
        <time>2019-08-13T10:35:59Z</time>
      </trkpt>
      <trkpt lat="47.23473" lon="-1.70117">
        <ele>64.6</ele>
        <time>2019-08-13T10:35:58Z</time>
      </trkpt>
      <trkpt lat="47.23468" lon="-1.70116">
        <ele>65</ele>
        <time>2019-08-13T10:35:57Z</time>
      </trkpt>
      <trkpt lat="47.23428" lon="-1.70129">
        <ele>65.4</ele>
        <time>2019-08-13T10:35:50Z</time>
      </trkpt>
      <trkpt lat="47.23423" lon="-1.7013">
        <ele>65.6</ele>
        <time>2019-08-13T10:35:49Z</time>
      </trkpt>
      <trkpt lat="47.23418" lon="-1.70133">
        <ele>66.2</ele>
        <time>2019-08-13T10:35:48Z</time>
      </trkpt>
      <trkpt lat="47.23413" lon="-1.70136">
        <ele>66.8</ele>
        <time>2019-08-13T10:35:47Z</time>
      </trkpt>
      <trkpt lat="47.23393" lon="-1.70149">
        <ele>68</ele>
        <time>2019-08-13T10:35:44Z</time>
      </trkpt>
      <trkpt lat="47.23353" lon="-1.70174">
        <ele>69.2</ele>
        <time>2019-08-13T10:35:37Z</time>
      </trkpt>
      <trkpt lat="47.23325" lon="-1.70191">
        <ele>68.2</ele>
        <time>2019-08-13T10:35:32Z</time>
      </trkpt>
      <trkpt lat="47.23303" lon="-1.70206">
        <ele>67.4</ele>
        <time>2019-08-13T10:35:28Z</time>
      </trkpt>
      <trkpt lat="47.23297" lon="-1.7021">
        <ele>67</ele>
        <time>2019-08-13T10:35:27Z</time>
      </trkpt>
      <trkpt lat="47.2328" lon="-1.7022">
        <ele>65.8</ele>
        <time>2019-08-13T10:35:24Z</time>
      </trkpt>
      <trkpt lat="47.2325" lon="-1.70233">
        <ele>64.8</ele>
        <time>2019-08-13T10:35:19Z</time>
      </trkpt>
      <trkpt lat="47.23238" lon="-1.70238">
        <ele>63.4</ele>
        <time>2019-08-13T10:35:17Z</time>
      </trkpt>
      <trkpt lat="47.23238" lon="-1.70238">
        <ele>62.8</ele>
        <time>2019-08-13T10:35:16Z</time>
      </trkpt>
      <trkpt lat="47.23226" lon="-1.70243">
        <ele>62.4</ele>
        <time>2019-08-13T10:35:15Z</time>
      </trkpt>
      <trkpt lat="47.23175" lon="-1.70256">
        <ele>61.6</ele>
        <time>2019-08-13T10:35:07Z</time>
      </trkpt>
      <trkpt lat="47.23151" lon="-1.70272">
        <ele>61.8</ele>
        <time>2019-08-13T10:35:03Z</time>
      </trkpt>
      <trkpt lat="47.23111" lon="-1.70296">
        <ele>61.2</ele>
        <time>2019-08-13T10:34:57Z</time>
      </trkpt>
      <trkpt lat="47.23088" lon="-1.70325">
        <ele>61</ele>
        <time>2019-08-13T10:34:50Z</time>
      </trkpt>
      <trkpt lat="47.23088" lon="-1.70335">
        <ele>62.2</ele>
        <time>2019-08-13T10:34:48Z</time>
      </trkpt>
      <trkpt lat="47.231" lon="-1.70368">
        <ele>63.4</ele>
        <time>2019-08-13T10:34:44Z</time>
      </trkpt>
      <trkpt lat="47.23103" lon="-1.70378">
        <ele>64</ele>
        <time>2019-08-13T10:34:43Z</time>
      </trkpt>
      <trkpt lat="47.23107" lon="-1.70399">
        <ele>65</ele>
        <time>2019-08-13T10:34:41Z</time>
      </trkpt>
      <trkpt lat="47.23112" lon="-1.70432">
        <ele>66</ele>
        <time>2019-08-13T10:34:38Z</time>
      </trkpt>
      <trkpt lat="47.23132" lon="-1.70515">
        <ele>66.6</ele>
        <time>2019-08-13T10:34:29Z</time>
      </trkpt>
      <trkpt lat="47.23146" lon="-1.70562">
        <ele>66</ele>
        <time>2019-08-13T10:34:21Z</time>
      </trkpt>
      <trkpt lat="47.23143" lon="-1.70569">
        <ele>65.8</ele>
        <time>2019-08-13T10:34:19Z</time>
      </trkpt>
      <trkpt lat="47.23132" lon="-1.7057">
        <ele>65</ele>
        <time>2019-08-13T10:34:16Z</time>
      </trkpt>
      <trkpt lat="47.23121" lon="-1.70567">
        <ele>64.2</ele>
        <time>2019-08-13T10:34:13Z</time>
      </trkpt>
      <trkpt lat="47.2311" lon="-1.70565">
        <ele>64</ele>
        <time>2019-08-13T10:34:11Z</time>
      </trkpt>
      <trkpt lat="47.23087" lon="-1.70556">
        <ele>63.8</ele>
        <time>2019-08-13T10:34:06Z</time>
      </trkpt>
      <trkpt lat="47.23075" lon="-1.70548">
        <ele>62.6</ele>
        <time>2019-08-13T10:34:02Z</time>
      </trkpt>
      <trkpt lat="47.2304" lon="-1.70527">
        <ele>61.4</ele>
        <time>2019-08-13T10:33:52Z</time>
      </trkpt>
      <trkpt lat="47.23027" lon="-1.70519">
        <ele>59.8</ele>
        <time>2019-08-13T10:33:48Z</time>
      </trkpt>
      <trkpt lat="47.23014" lon="-1.7051">
        <ele>58.6</ele>
        <time>2019-08-13T10:33:43Z</time>
      </trkpt>
      <trkpt lat="47.22998" lon="-1.70503">
        <ele>57.2</ele>
        <time>2019-08-13T10:33:38Z</time>
      </trkpt>
      <trkpt lat="47.22986" lon="-1.70498">
        <ele>56</ele>
        <time>2019-08-13T10:33:34Z</time>
      </trkpt>
      <trkpt lat="47.2298" lon="-1.70493">
        <ele>55</ele>
        <time>2019-08-13T10:33:32Z</time>
      </trkpt>
      <trkpt lat="47.22966" lon="-1.70487">
        <ele>53.6</ele>
        <time>2019-08-13T10:33:27Z</time>
      </trkpt>
      <trkpt lat="47.22953" lon="-1.70486">
        <ele>52.6</ele>
        <time>2019-08-13T10:33:23Z</time>
      </trkpt>
      <trkpt lat="47.2294" lon="-1.70485">
        <ele>51.4</ele>
        <time>2019-08-13T10:33:18Z</time>
      </trkpt>
      <trkpt lat="47.22933" lon="-1.70484">
        <ele>50.2</ele>
        <time>2019-08-13T10:33:16Z</time>
      </trkpt>
      <trkpt lat="47.22928" lon="-1.70483">
        <ele>49.2</ele>
        <time>2019-08-13T10:33:14Z</time>
      </trkpt>
      <trkpt lat="47.22919" lon="-1.70481">
        <ele>48</ele>
        <time>2019-08-13T10:33:11Z</time>
      </trkpt>
      <trkpt lat="47.2291" lon="-1.70477">
        <ele>46.6</ele>
        <time>2019-08-13T10:33:08Z</time>
      </trkpt>
      <trkpt lat="47.22884" lon="-1.70468">
        <ele>45.4</ele>
        <time>2019-08-13T10:33:02Z</time>
      </trkpt>
      <trkpt lat="47.22875" lon="-1.70466">
        <ele>45.2</ele>
        <time>2019-08-13T10:33:00Z</time>
      </trkpt>
      <trkpt lat="47.22865" lon="-1.70463">
        <ele>44.8</ele>
        <time>2019-08-13T10:32:58Z</time>
      </trkpt>
      <trkpt lat="47.22861" lon="-1.70462">
        <ele>44.6</ele>
        <time>2019-08-13T10:32:57Z</time>
      </trkpt>
      <trkpt lat="47.22851" lon="-1.7046">
        <ele>44.4</ele>
        <time>2019-08-13T10:32:55Z</time>
      </trkpt>
      <trkpt lat="47.22822" lon="-1.70454">
        <ele>43.2</ele>
        <time>2019-08-13T10:32:48Z</time>
      </trkpt>
      <trkpt lat="47.22799" lon="-1.70444">
        <ele>42.6</ele>
        <time>2019-08-13T10:32:43Z</time>
      </trkpt>
      <trkpt lat="47.22789" lon="-1.70439">
        <ele>42.2</ele>
        <time>2019-08-13T10:32:41Z</time>
      </trkpt>
      <trkpt lat="47.2277" lon="-1.70436">
        <ele>43.2</ele>
        <time>2019-08-13T10:32:37Z</time>
      </trkpt>
      <trkpt lat="47.22761" lon="-1.70437">
        <ele>43.6</ele>
        <time>2019-08-13T10:32:35Z</time>
      </trkpt>
      <trkpt lat="47.22752" lon="-1.70434">
        <ele>43.2</ele>
        <time>2019-08-13T10:32:33Z</time>
      </trkpt>
      <trkpt lat="47.22749" lon="-1.70426">
        <ele>42.8</ele>
        <time>2019-08-13T10:32:32Z</time>
      </trkpt>
      <trkpt lat="47.22735" lon="-1.70377">
        <ele>40.8</ele>
        <time>2019-08-13T10:32:26Z</time>
      </trkpt>
      <trkpt lat="47.22712" lon="-1.70299">
        <ele>42.6</ele>
        <time>2019-08-13T10:32:18Z</time>
      </trkpt>
      <trkpt lat="47.22708" lon="-1.7027">
        <ele>42.4</ele>
        <time>2019-08-13T10:32:15Z</time>
      </trkpt>
      <trkpt lat="47.22699" lon="-1.70186">
        <ele>41.6</ele>
        <time>2019-08-13T10:32:07Z</time>
      </trkpt>
      <trkpt lat="47.22692" lon="-1.70111">
        <ele>39.8</ele>
        <time>2019-08-13T10:32:00Z</time>
      </trkpt>
      <trkpt lat="47.22684" lon="-1.70025">
        <ele>40</ele>
        <time>2019-08-13T10:31:52Z</time>
      </trkpt>
      <trkpt lat="47.22687" lon="-1.69944">
        <ele>40.8</ele>
        <time>2019-08-13T10:31:44Z</time>
      </trkpt>
      <trkpt lat="47.22691" lon="-1.69929">
        <ele>41</ele>
        <time>2019-08-13T10:31:42Z</time>
      </trkpt>
      <trkpt lat="47.22698" lon="-1.69921">
        <ele>41.2</ele>
        <time>2019-08-13T10:31:40Z</time>
      </trkpt>
      <trkpt lat="47.22711" lon="-1.69918">
        <ele>41.2</ele>
        <time>2019-08-13T10:31:38Z</time>
      </trkpt>
      <trkpt lat="47.22735" lon="-1.69904">
        <ele>40.4</ele>
        <time>2019-08-13T10:31:34Z</time>
      </trkpt>
      <trkpt lat="47.22753" lon="-1.69892">
        <ele>41.6</ele>
        <time>2019-08-13T10:31:31Z</time>
      </trkpt>
      <trkpt lat="47.22762" lon="-1.69883">
        <ele>43</ele>
        <time>2019-08-13T10:31:29Z</time>
      </trkpt>
      <trkpt lat="47.22767" lon="-1.69879">
        <ele>43.6</ele>
        <time>2019-08-13T10:31:28Z</time>
      </trkpt>
      <trkpt lat="47.22779" lon="-1.69864">
        <ele>43.8</ele>
        <time>2019-08-13T10:31:25Z</time>
      </trkpt>
      <trkpt lat="47.22793" lon="-1.69849">
        <ele>44.4</ele>
        <time>2019-08-13T10:31:22Z</time>
      </trkpt>
      <trkpt lat="47.22797" lon="-1.69845">
        <ele>45</ele>
        <time>2019-08-13T10:31:21Z</time>
      </trkpt>
      <trkpt lat="47.22809" lon="-1.69836">
        <ele>46</ele>
        <time>2019-08-13T10:31:19Z</time>
      </trkpt>
      <trkpt lat="47.22822" lon="-1.69829">
        <ele>47.2</ele>
        <time>2019-08-13T10:31:17Z</time>
      </trkpt>
      <trkpt lat="47.22829" lon="-1.69824">
        <ele>47.4</ele>
        <time>2019-08-13T10:31:16Z</time>
      </trkpt>
      <trkpt lat="47.22854" lon="-1.69798">
        <ele>48.2</ele>
        <time>2019-08-13T10:31:11Z</time>
      </trkpt>
      <trkpt lat="47.22863" lon="-1.69788">
        <ele>49.2</ele>
        <time>2019-08-13T10:31:09Z</time>
      </trkpt>
      <trkpt lat="47.22872" lon="-1.69779">
        <ele>49.8</ele>
        <time>2019-08-13T10:31:07Z</time>
      </trkpt>
      <trkpt lat="47.22875" lon="-1.69773">
        <ele>49.6</ele>
        <time>2019-08-13T10:31:06Z</time>
      </trkpt>
      <trkpt lat="47.22877" lon="-1.69763">
        <ele>48.2</ele>
        <time>2019-08-13T10:31:04Z</time>
      </trkpt>
      <trkpt lat="47.22871" lon="-1.69753">
        <ele>46.6</ele>
        <time>2019-08-13T10:31:02Z</time>
      </trkpt>
      <trkpt lat="47.2286" lon="-1.69744">
        <ele>45.4</ele>
        <time>2019-08-13T10:30:58Z</time>
      </trkpt>
      <trkpt lat="47.22852" lon="-1.69741">
        <ele>43.8</ele>
        <time>2019-08-13T10:30:56Z</time>
      </trkpt>
      <trkpt lat="47.2285" lon="-1.69738">
        <ele>43</ele>
        <time>2019-08-13T10:30:55Z</time>
      </trkpt>
      <trkpt lat="47.2283" lon="-1.69696">
        <ele>42.6</ele>
        <time>2019-08-13T10:30:47Z</time>
      </trkpt>
      <trkpt lat="47.22827" lon="-1.69678">
        <ele>43</ele>
        <time>2019-08-13T10:30:45Z</time>
      </trkpt>
      <trkpt lat="47.22822" lon="-1.69664">
        <ele>43.8</ele>
        <time>2019-08-13T10:30:43Z</time>
      </trkpt>
      <trkpt lat="47.22819" lon="-1.69658">
        <ele>44.8</ele>
        <time>2019-08-13T10:30:41Z</time>
      </trkpt>
      <trkpt lat="47.22814" lon="-1.69645">
        <ele>45.4</ele>
        <time>2019-08-13T10:30:40Z</time>
      </trkpt>
      <trkpt lat="47.22812" lon="-1.69639">
        <ele>45.8</ele>
        <time>2019-08-13T10:30:39Z</time>
      </trkpt>
      <trkpt lat="47.22811" lon="-1.6963">
        <ele>47</ele>
        <time>2019-08-13T10:30:37Z</time>
      </trkpt>
      <trkpt lat="47.22811" lon="-1.69626">
        <ele>47.6</ele>
        <time>2019-08-13T10:30:36Z</time>
      </trkpt>
      <trkpt lat="47.22813" lon="-1.69623">
        <ele>48.6</ele>
        <time>2019-08-13T10:30:35Z</time>
      </trkpt>
      <trkpt lat="47.22816" lon="-1.69619">
        <ele>50</ele>
        <time>2019-08-13T10:30:34Z</time>
      </trkpt>
      <trkpt lat="47.2282" lon="-1.69614">
        <ele>51.8</ele>
        <time>2019-08-13T10:30:33Z</time>
      </trkpt>
      <trkpt lat="47.22825" lon="-1.69609">
        <ele>53.2</ele>
        <time>2019-08-13T10:30:32Z</time>
      </trkpt>
      <trkpt lat="47.22829" lon="-1.69602">
        <ele>54.2</ele>
        <time>2019-08-13T10:30:31Z</time>
      </trkpt>
      <trkpt lat="47.22839" lon="-1.69588">
        <ele>54.4</ele>
        <time>2019-08-13T10:30:29Z</time>
      </trkpt>
      <trkpt lat="47.22843" lon="-1.69582">
        <ele>54.6</ele>
        <time>2019-08-13T10:30:27Z</time>
      </trkpt>
      <trkpt lat="47.22855" lon="-1.6957">
        <ele>55.6</ele>
        <time>2019-08-13T10:30:25Z</time>
      </trkpt>
      <trkpt lat="47.22859" lon="-1.69568">
        <ele>56.6</ele>
        <time>2019-08-13T10:30:24Z</time>
      </trkpt>
      <trkpt lat="47.22862" lon="-1.69565">
        <ele>57.8</ele>
        <time>2019-08-13T10:30:23Z</time>
      </trkpt>
      <trkpt lat="47.22866" lon="-1.6956">
        <ele>58.6</ele>
        <time>2019-08-13T10:30:22Z</time>
      </trkpt>
      <trkpt lat="47.22874" lon="-1.69552">
        <ele>58.8</ele>
        <time>2019-08-13T10:30:21Z</time>
      </trkpt>
      <trkpt lat="47.22879" lon="-1.69548">
        <ele>60.4</ele>
        <time>2019-08-13T10:30:19Z</time>
      </trkpt>
      <trkpt lat="47.22899" lon="-1.69523">
        <ele>61.8</ele>
        <time>2019-08-13T10:30:16Z</time>
      </trkpt>
      <trkpt lat="47.22909" lon="-1.6951">
        <ele>62.8</ele>
        <time>2019-08-13T10:30:14Z</time>
      </trkpt>
      <trkpt lat="47.22915" lon="-1.69503">
        <ele>63</ele>
        <time>2019-08-13T10:30:13Z</time>
      </trkpt>
      <trkpt lat="47.22924" lon="-1.69489">
        <ele>63.2</ele>
        <time>2019-08-13T10:30:11Z</time>
      </trkpt>
      <trkpt lat="47.22929" lon="-1.69482">
        <ele>63.6</ele>
        <time>2019-08-13T10:30:09Z</time>
      </trkpt>
      <trkpt lat="47.22949" lon="-1.69461">
        <ele>63.8</ele>
        <time>2019-08-13T10:30:06Z</time>
      </trkpt>
      <trkpt lat="47.2297" lon="-1.69439">
        <ele>65</ele>
        <time>2019-08-13T10:30:03Z</time>
      </trkpt>
      <trkpt lat="47.22983" lon="-1.69425">
        <ele>65.8</ele>
        <time>2019-08-13T10:30:02Z</time>
      </trkpt>
      <trkpt lat="47.22989" lon="-1.69416">
        <ele>66.2</ele>
        <time>2019-08-13T10:30:01Z</time>
      </trkpt>
      <trkpt lat="47.23003" lon="-1.69387">
        <ele>66.8</ele>
        <time>2019-08-13T10:29:57Z</time>
      </trkpt>
      <trkpt lat="47.23014" lon="-1.69356">
        <ele>67</ele>
        <time>2019-08-13T10:29:55Z</time>
      </trkpt>
      <trkpt lat="47.2302" lon="-1.69312">
        <ele>67.6</ele>
        <time>2019-08-13T10:29:51Z</time>
      </trkpt>
      <trkpt lat="47.23024" lon="-1.6929">
        <ele>67.8</ele>
        <time>2019-08-13T10:29:49Z</time>
      </trkpt>
      <trkpt lat="47.23031" lon="-1.6927">
        <ele>67.4</ele>
        <time>2019-08-13T10:29:46Z</time>
      </trkpt>
      <trkpt lat="47.23065" lon="-1.69203">
        <ele>67.2</ele>
        <time>2019-08-13T10:29:40Z</time>
      </trkpt>
      <trkpt lat="47.23084" lon="-1.69178">
        <ele>68.4</ele>
        <time>2019-08-13T10:29:37Z</time>
      </trkpt>
      <trkpt lat="47.23097" lon="-1.69161">
        <ele>69.6</ele>
        <time>2019-08-13T10:29:35Z</time>
      </trkpt>
      <trkpt lat="47.23126" lon="-1.69124">
        <ele>70.8</ele>
        <time>2019-08-13T10:29:30Z</time>
      </trkpt>
      <trkpt lat="47.23134" lon="-1.69112">
        <ele>71.2</ele>
        <time>2019-08-13T10:29:28Z</time>
      </trkpt>
      <trkpt lat="47.23132" lon="-1.69098">
        <ele>72</ele>
        <time>2019-08-13T10:29:26Z</time>
      </trkpt>
      <trkpt lat="47.23122" lon="-1.69081">
        <ele>72.6</ele>
        <time>2019-08-13T10:29:24Z</time>
      </trkpt>
      <trkpt lat="47.23098" lon="-1.69031">
        <ele>72.8</ele>
        <time>2019-08-13T10:29:19Z</time>
      </trkpt>
      <trkpt lat="47.23077" lon="-1.68953">
        <ele>73.2</ele>
        <time>2019-08-13T10:29:12Z</time>
      </trkpt>
      <trkpt lat="47.23072" lon="-1.6893">
        <ele>73.6</ele>
        <time>2019-08-13T10:29:10Z</time>
      </trkpt>
      <trkpt lat="47.23057" lon="-1.68844">
        <ele>74.4</ele>
        <time>2019-08-13T10:29:03Z</time>
      </trkpt>
      <trkpt lat="47.23036" lon="-1.68793">
        <ele>74.2</ele>
        <time>2019-08-13T10:28:57Z</time>
      </trkpt>
      <trkpt lat="47.23019" lon="-1.68763">
        <ele>75.4</ele>
        <time>2019-08-13T10:28:54Z</time>
      </trkpt>
      <trkpt lat="47.23012" lon="-1.68752">
        <ele>76.6</ele>
        <time>2019-08-13T10:28:52Z</time>
      </trkpt>
      <trkpt lat="47.23012" lon="-1.68746">
        <ele>77.2</ele>
        <time>2019-08-13T10:28:51Z</time>
      </trkpt>
      <trkpt lat="47.23016" lon="-1.68741">
        <ele>78</ele>
        <time>2019-08-13T10:28:49Z</time>
      </trkpt>
      <trkpt lat="47.2306" lon="-1.68718">
        <ele>77.6</ele>
        <time>2019-08-13T10:28:44Z</time>
      </trkpt>
      <trkpt lat="47.23074" lon="-1.68708">
        <ele>76.6</ele>
        <time>2019-08-13T10:28:42Z</time>
      </trkpt>
      <trkpt lat="47.23081" lon="-1.68705">
        <ele>77.6</ele>
        <time>2019-08-13T10:28:41Z</time>
      </trkpt>
      <trkpt lat="47.23103" lon="-1.68692">
        <ele>78.2</ele>
        <time>2019-08-13T10:28:38Z</time>
      </trkpt>
      <trkpt lat="47.23147" lon="-1.68671">
        <ele>78.6</ele>
        <time>2019-08-13T10:28:32Z</time>
      </trkpt>
      <trkpt lat="47.23163" lon="-1.68664">
        <ele>78.8</ele>
        <time>2019-08-13T10:28:30Z</time>
      </trkpt>
      <trkpt lat="47.23173" lon="-1.68659">
        <ele>79.2</ele>
        <time>2019-08-13T10:28:28Z</time>
      </trkpt>
      <trkpt lat="47.2318" lon="-1.68647">
        <ele>79.4</ele>
        <time>2019-08-13T10:28:26Z</time>
      </trkpt>
      <trkpt lat="47.23172" lon="-1.68632">
        <ele>79.4</ele>
        <time>2019-08-13T10:28:23Z</time>
      </trkpt>
      <trkpt lat="47.23164" lon="-1.6862">
        <ele>79.4</ele>
        <time>2019-08-13T10:28:21Z</time>
      </trkpt>
      <trkpt lat="47.23144" lon="-1.68589">
        <ele>78</ele>
        <time>2019-08-13T10:28:17Z</time>
      </trkpt>
      <trkpt lat="47.23137" lon="-1.68569">
        <ele>77</ele>
        <time>2019-08-13T10:28:15Z</time>
      </trkpt>
      <trkpt lat="47.23131" lon="-1.68563">
        <ele>77.4</ele>
        <time>2019-08-13T10:28:14Z</time>
      </trkpt>
      <trkpt lat="47.23126" lon="-1.68555">
        <ele>78.4</ele>
        <time>2019-08-13T10:28:13Z</time>
      </trkpt>
      <trkpt lat="47.23123" lon="-1.68547">
        <ele>79.4</ele>
        <time>2019-08-13T10:28:12Z</time>
      </trkpt>
      <trkpt lat="47.2312" lon="-1.68528">
        <ele>80.2</ele>
        <time>2019-08-13T10:28:10Z</time>
      </trkpt>
      <trkpt lat="47.23118" lon="-1.68506">
        <ele>80.8</ele>
        <time>2019-08-13T10:28:08Z</time>
      </trkpt>
      <trkpt lat="47.23116" lon="-1.68438">
        <ele>82.4</ele>
        <time>2019-08-13T10:28:02Z</time>
      </trkpt>
      <trkpt lat="47.23115" lon="-1.68351">
        <ele>81.8</ele>
        <time>2019-08-13T10:27:54Z</time>
      </trkpt>
      <trkpt lat="47.23113" lon="-1.68341">
        <ele>82</ele>
        <time>2019-08-13T10:27:53Z</time>
      </trkpt>
      <trkpt lat="47.23096" lon="-1.68266">
        <ele>83.2</ele>
        <time>2019-08-13T10:27:45Z</time>
      </trkpt>
      <trkpt lat="47.23071" lon="-1.68187">
        <ele>83</ele>
        <time>2019-08-13T10:27:37Z</time>
      </trkpt>
      <trkpt lat="47.23063" lon="-1.68169">
        <ele>82.4</ele>
        <time>2019-08-13T10:27:35Z</time>
      </trkpt>
      <trkpt lat="47.23055" lon="-1.68143">
        <ele>81.6</ele>
        <time>2019-08-13T10:27:32Z</time>
      </trkpt>
      <trkpt lat="47.23052" lon="-1.68122">
        <ele>81.8</ele>
        <time>2019-08-13T10:27:30Z</time>
      </trkpt>
      <trkpt lat="47.23041" lon="-1.68039">
        <ele>82.2</ele>
        <time>2019-08-13T10:27:22Z</time>
      </trkpt>
      <trkpt lat="47.23033" lon="-1.67988">
        <ele>81.8</ele>
        <time>2019-08-13T10:27:16Z</time>
      </trkpt>
      <trkpt lat="47.23025" lon="-1.67951">
        <ele>81.8</ele>
        <time>2019-08-13T10:27:12Z</time>
      </trkpt>
      <trkpt lat="47.23015" lon="-1.67905">
        <ele>81</ele>
        <time>2019-08-13T10:27:07Z</time>
      </trkpt>
      <trkpt lat="47.23009" lon="-1.67888">
        <ele>81.4</ele>
        <time>2019-08-13T10:27:05Z</time>
      </trkpt>
      <trkpt lat="47.2297" lon="-1.67821">
        <ele>80.6</ele>
        <time>2019-08-13T10:26:56Z</time>
      </trkpt>
      <trkpt lat="47.22929" lon="-1.67767">
        <ele>81.8</ele>
        <time>2019-08-13T10:26:48Z</time>
      </trkpt>
      <trkpt lat="47.22921" lon="-1.67752">
        <ele>81.6</ele>
        <time>2019-08-13T10:26:46Z</time>
      </trkpt>
      <trkpt lat="47.22913" lon="-1.67729">
        <ele>81.4</ele>
        <time>2019-08-13T10:26:43Z</time>
      </trkpt>
      <trkpt lat="47.22906" lon="-1.67722">
        <ele>81.4</ele>
        <time>2019-08-13T10:26:41Z</time>
      </trkpt>
      <trkpt lat="47.229" lon="-1.67723">
        <ele>81.6</ele>
        <time>2019-08-13T10:26:39Z</time>
      </trkpt>
      <trkpt lat="47.22885" lon="-1.67709">
        <ele>81.6</ele>
        <time>2019-08-13T10:26:34Z</time>
      </trkpt>
      <trkpt lat="47.22882" lon="-1.67704">
        <ele>81.2</ele>
        <time>2019-08-13T10:26:33Z</time>
      </trkpt>
      <trkpt lat="47.22874" lon="-1.67695">
        <ele>80.4</ele>
        <time>2019-08-13T10:26:31Z</time>
      </trkpt>
      <trkpt lat="47.22839" lon="-1.67661">
        <ele>78.8</ele>
        <time>2019-08-13T10:26:24Z</time>
      </trkpt>
      <trkpt lat="47.22834" lon="-1.67656">
        <ele>78.6</ele>
        <time>2019-08-13T10:26:23Z</time>
      </trkpt>
      <trkpt lat="47.22826" lon="-1.67642">
        <ele>78</ele>
        <time>2019-08-13T10:26:21Z</time>
      </trkpt>
      <trkpt lat="47.22823" lon="-1.67635">
        <ele>77.8</ele>
        <time>2019-08-13T10:26:20Z</time>
      </trkpt>
      <trkpt lat="47.22817" lon="-1.6762">
        <ele>77.6</ele>
        <time>2019-08-13T10:26:18Z</time>
      </trkpt>
      <trkpt lat="47.22809" lon="-1.67586">
        <ele>77.4</ele>
        <time>2019-08-13T10:26:14Z</time>
      </trkpt>
      <trkpt lat="47.22805" lon="-1.67551">
        <ele>76.8</ele>
        <time>2019-08-13T10:26:10Z</time>
      </trkpt>
      <trkpt lat="47.22803" lon="-1.67542">
        <ele>76.6</ele>
        <time>2019-08-13T10:26:09Z</time>
      </trkpt>
      <trkpt lat="47.22798" lon="-1.67526">
        <ele>76.4</ele>
        <time>2019-08-13T10:26:07Z</time>
      </trkpt>
      <trkpt lat="47.2279" lon="-1.67512">
        <ele>76</ele>
        <time>2019-08-13T10:26:05Z</time>
      </trkpt>
      <trkpt lat="47.22782" lon="-1.675">
        <ele>75.6</ele>
        <time>2019-08-13T10:26:03Z</time>
      </trkpt>
      <trkpt lat="47.22768" lon="-1.67489">
        <ele>74.2</ele>
        <time>2019-08-13T10:26:01Z</time>
      </trkpt>
      <trkpt lat="47.22758" lon="-1.6748">
        <ele>73.2</ele>
        <time>2019-08-13T10:25:59Z</time>
      </trkpt>
      <trkpt lat="47.22749" lon="-1.6747">
        <ele>72</ele>
        <time>2019-08-13T10:25:57Z</time>
      </trkpt>
      <trkpt lat="47.22732" lon="-1.67452">
        <ele>70.8</ele>
        <time>2019-08-13T10:25:53Z</time>
      </trkpt>
      <trkpt lat="47.22718" lon="-1.67441">
        <ele>69.6</ele>
        <time>2019-08-13T10:25:50Z</time>
      </trkpt>
      <trkpt lat="47.22709" lon="-1.67431">
        <ele>68.6</ele>
        <time>2019-08-13T10:25:48Z</time>
      </trkpt>
      <trkpt lat="47.22698" lon="-1.67427">
        <ele>67.4</ele>
        <time>2019-08-13T10:25:46Z</time>
      </trkpt>
      <trkpt lat="47.22692" lon="-1.67425">
        <ele>66.6</ele>
        <time>2019-08-13T10:25:45Z</time>
      </trkpt>
      <trkpt lat="47.22676" lon="-1.6742">
        <ele>65.8</ele>
        <time>2019-08-13T10:25:42Z</time>
      </trkpt>
      <trkpt lat="47.22659" lon="-1.67416">
        <ele>64.6</ele>
        <time>2019-08-13T10:25:39Z</time>
      </trkpt>
      <trkpt lat="47.22654" lon="-1.67415">
        <ele>64.2</ele>
        <time>2019-08-13T10:25:38Z</time>
      </trkpt>
      <trkpt lat="47.22631" lon="-1.67403">
        <ele>63.4</ele>
        <time>2019-08-13T10:25:34Z</time>
      </trkpt>
      <trkpt lat="47.22618" lon="-1.67398">
        <ele>63.4</ele>
        <time>2019-08-13T10:25:32Z</time>
      </trkpt>
      <trkpt lat="47.22598" lon="-1.67394">
        <ele>62.6</ele>
        <time>2019-08-13T10:25:29Z</time>
      </trkpt>
      <trkpt lat="47.22584" lon="-1.67394">
        <ele>62.2</ele>
        <time>2019-08-13T10:25:27Z</time>
      </trkpt>
      <trkpt lat="47.22565" lon="-1.67396">
        <ele>61.8</ele>
        <time>2019-08-13T10:25:24Z</time>
      </trkpt>
      <trkpt lat="47.22554" lon="-1.67402">
        <ele>61.2</ele>
        <time>2019-08-13T10:25:21Z</time>
      </trkpt>
      <trkpt lat="47.22539" lon="-1.67397">
        <ele>60.8</ele>
        <time>2019-08-13T10:25:19Z</time>
      </trkpt>
      <trkpt lat="47.22536" lon="-1.67389">
        <ele>60.4</ele>
        <time>2019-08-13T10:25:18Z</time>
      </trkpt>
      <trkpt lat="47.2251" lon="-1.67319">
        <ele>59.2</ele>
        <time>2019-08-13T10:25:10Z</time>
      </trkpt>
      <trkpt lat="47.2248" lon="-1.67249">
        <ele>59.4</ele>
        <time>2019-08-13T10:25:03Z</time>
      </trkpt>
      <trkpt lat="47.22442" lon="-1.67178">
        <ele>59.8</ele>
        <time>2019-08-13T10:24:56Z</time>
      </trkpt>
      <trkpt lat="47.22437" lon="-1.67165">
        <ele>60</ele>
        <time>2019-08-13T10:24:55Z</time>
      </trkpt>
      <trkpt lat="47.22429" lon="-1.67138">
        <ele>61.2</ele>
        <time>2019-08-13T10:24:53Z</time>
      </trkpt>
      <trkpt lat="47.22415" lon="-1.67097">
        <ele>62.4</ele>
        <time>2019-08-13T10:24:50Z</time>
      </trkpt>
      <trkpt lat="47.22401" lon="-1.67062">
        <ele>62.8</ele>
        <time>2019-08-13T10:24:47Z</time>
      </trkpt>
      <trkpt lat="47.22388" lon="-1.67044">
        <ele>63.4</ele>
        <time>2019-08-13T10:24:45Z</time>
      </trkpt>
      <trkpt lat="47.22344" lon="-1.67015">
        <ele>64.4</ele>
        <time>2019-08-13T10:24:41Z</time>
      </trkpt>
      <trkpt lat="47.2232" lon="-1.67009">
        <ele>64.8</ele>
        <time>2019-08-13T10:24:38Z</time>
      </trkpt>
      <trkpt lat="47.22308" lon="-1.67019">
        <ele>65</ele>
        <time>2019-08-13T10:24:35Z</time>
      </trkpt>
      <trkpt lat="47.22299" lon="-1.67028">
        <ele>65.2</ele>
        <time>2019-08-13T10:24:33Z</time>
      </trkpt>
      <trkpt lat="47.22283" lon="-1.67042">
        <ele>64.8</ele>
        <time>2019-08-13T10:24:30Z</time>
      </trkpt>
      <trkpt lat="47.22279" lon="-1.67046">
        <ele>64.6</ele>
        <time>2019-08-13T10:24:29Z</time>
      </trkpt>
      <trkpt lat="47.2226" lon="-1.67061">
        <ele>63.6</ele>
        <time>2019-08-13T10:24:25Z</time>
      </trkpt>
      <trkpt lat="47.22256" lon="-1.67064">
        <ele>63.4</ele>
        <time>2019-08-13T10:24:24Z</time>
      </trkpt>
      <trkpt lat="47.22246" lon="-1.6707">
        <ele>62.4</ele>
        <time>2019-08-13T10:24:22Z</time>
      </trkpt>
      <trkpt lat="47.22206" lon="-1.67095">
        <ele>62.2</ele>
        <time>2019-08-13T10:24:14Z</time>
      </trkpt>
      <trkpt lat="47.22195" lon="-1.67103">
        <ele>63.2</ele>
        <time>2019-08-13T10:24:11Z</time>
      </trkpt>
      <trkpt lat="47.22184" lon="-1.67108">
        <ele>63.4</ele>
        <time>2019-08-13T10:24:10Z</time>
      </trkpt>
      <trkpt lat="47.22137" lon="-1.6712">
        <ele>64.2</ele>
        <time>2019-08-13T10:24:02Z</time>
      </trkpt>
      <trkpt lat="47.22125" lon="-1.67123">
        <ele>64.6</ele>
        <time>2019-08-13T10:23:59Z</time>
      </trkpt>
      <trkpt lat="47.2211" lon="-1.67134">
        <ele>64.8</ele>
        <time>2019-08-13T10:23:55Z</time>
      </trkpt>
      <trkpt lat="47.22109" lon="-1.67165">
        <ele>64.4</ele>
        <time>2019-08-13T10:23:49Z</time>
      </trkpt>
      <trkpt lat="47.22112" lon="-1.67176">
        <ele>63.4</ele>
        <time>2019-08-13T10:23:47Z</time>
      </trkpt>
      <trkpt lat="47.22115" lon="-1.67188">
        <ele>62</ele>
        <time>2019-08-13T10:23:45Z</time>
      </trkpt>
      <trkpt lat="47.22122" lon="-1.67211">
        <ele>61</ele>
        <time>2019-08-13T10:23:41Z</time>
      </trkpt>
      <trkpt lat="47.22127" lon="-1.67232">
        <ele>60</ele>
        <time>2019-08-13T10:23:36Z</time>
      </trkpt>
      <trkpt lat="47.22132" lon="-1.67248">
        <ele>58.6</ele>
        <time>2019-08-13T10:23:33Z</time>
      </trkpt>
      <trkpt lat="47.22137" lon="-1.67271">
        <ele>57</ele>
        <time>2019-08-13T10:23:28Z</time>
      </trkpt>
      <trkpt lat="47.2214" lon="-1.67289">
        <ele>56</ele>
        <time>2019-08-13T10:23:24Z</time>
      </trkpt>
      <trkpt lat="47.22139" lon="-1.67304">
        <ele>54.6</ele>
        <time>2019-08-13T10:23:21Z</time>
      </trkpt>
      <trkpt lat="47.22136" lon="-1.67319">
        <ele>53.4</ele>
        <time>2019-08-13T10:23:18Z</time>
      </trkpt>
      <trkpt lat="47.22133" lon="-1.67332">
        <ele>52.4</ele>
        <time>2019-08-13T10:23:15Z</time>
      </trkpt>
      <trkpt lat="47.22132" lon="-1.67341">
        <ele>51</ele>
        <time>2019-08-13T10:23:13Z</time>
      </trkpt>
      <trkpt lat="47.22127" lon="-1.67355">
        <ele>49.4</ele>
        <time>2019-08-13T10:23:10Z</time>
      </trkpt>
      <trkpt lat="47.22116" lon="-1.67369">
        <ele>48.2</ele>
        <time>2019-08-13T10:23:07Z</time>
      </trkpt>
      <trkpt lat="47.221" lon="-1.6738">
        <ele>47.2</ele>
        <time>2019-08-13T10:23:03Z</time>
      </trkpt>
      <trkpt lat="47.22065" lon="-1.67395">
        <ele>46.4</ele>
        <time>2019-08-13T10:22:56Z</time>
      </trkpt>
      <trkpt lat="47.22031" lon="-1.67397">
        <ele>46.2</ele>
        <time>2019-08-13T10:22:50Z</time>
      </trkpt>
      <trkpt lat="47.2198" lon="-1.67403">
        <ele>44.6</ele>
        <time>2019-08-13T10:22:41Z</time>
      </trkpt>
      <trkpt lat="47.21923" lon="-1.674">
        <ele>45.8</ele>
        <time>2019-08-13T10:22:29Z</time>
      </trkpt>
      <trkpt lat="47.21876" lon="-1.67414">
        <ele>44.6</ele>
        <time>2019-08-13T10:22:21Z</time>
      </trkpt>
      <trkpt lat="47.21838" lon="-1.67431">
        <ele>43.6</ele>
        <time>2019-08-13T10:22:10Z</time>
      </trkpt>
      <trkpt lat="47.21828" lon="-1.67433">
        <ele>43</ele>
        <time>2019-08-13T10:22:08Z</time>
      </trkpt>
      <trkpt lat="47.21823" lon="-1.67433">
        <ele>42.6</ele>
        <time>2019-08-13T10:22:07Z</time>
      </trkpt>
      <trkpt lat="47.21803" lon="-1.67432">
        <ele>41.8</ele>
        <time>2019-08-13T10:22:01Z</time>
      </trkpt>
      <trkpt lat="47.21789" lon="-1.67424">
        <ele>42</ele>
        <time>2019-08-13T10:21:59Z</time>
      </trkpt>
      <trkpt lat="47.21761" lon="-1.67399">
        <ele>41.6</ele>
        <time>2019-08-13T10:21:54Z</time>
      </trkpt>
      <trkpt lat="47.21761" lon="-1.67399">
        <ele>41.2</ele>
        <time>2019-08-13T10:21:53Z</time>
      </trkpt>
      <trkpt lat="47.2174" lon="-1.67381">
        <ele>41</ele>
        <time>2019-08-13T10:21:50Z</time>
      </trkpt>
      <trkpt lat="47.21719" lon="-1.67346">
        <ele>40.4</ele>
        <time>2019-08-13T10:21:45Z</time>
      </trkpt>
      <trkpt lat="47.21696" lon="-1.6731">
        <ele>40.4</ele>
        <time>2019-08-13T10:21:37Z</time>
      </trkpt>
      <trkpt lat="47.21696" lon="-1.67304">
        <ele>41.6</ele>
        <time>2019-08-13T10:21:34Z</time>
      </trkpt>
      <trkpt lat="47.21699" lon="-1.673">
        <ele>42.8</ele>
        <time>2019-08-13T10:21:33Z</time>
      </trkpt>
      <trkpt lat="47.21708" lon="-1.67295">
        <ele>44.4</ele>
        <time>2019-08-13T10:21:32Z</time>
      </trkpt>
      <trkpt lat="47.21714" lon="-1.67291">
        <ele>46.4</ele>
        <time>2019-08-13T10:21:30Z</time>
      </trkpt>
      <trkpt lat="47.21719" lon="-1.67287">
        <ele>47.6</ele>
        <time>2019-08-13T10:21:29Z</time>
      </trkpt>
      <trkpt lat="47.21741" lon="-1.67263">
        <ele>49.2</ele>
        <time>2019-08-13T10:21:26Z</time>
      </trkpt>
      <trkpt lat="47.21747" lon="-1.67257">
        <ele>50.2</ele>
        <time>2019-08-13T10:21:25Z</time>
      </trkpt>
      <trkpt lat="47.21753" lon="-1.67252">
        <ele>51.6</ele>
        <time>2019-08-13T10:21:24Z</time>
      </trkpt>
      <trkpt lat="47.21758" lon="-1.67249">
        <ele>53.4</ele>
        <time>2019-08-13T10:21:23Z</time>
      </trkpt>
      <trkpt lat="47.21763" lon="-1.67246">
        <ele>54.8</ele>
        <time>2019-08-13T10:21:22Z</time>
      </trkpt>
      <trkpt lat="47.21767" lon="-1.67242">
        <ele>55.4</ele>
        <time>2019-08-13T10:21:21Z</time>
      </trkpt>
      <trkpt lat="47.21774" lon="-1.67233">
        <ele>56</ele>
        <time>2019-08-13T10:21:19Z</time>
      </trkpt>
      <trkpt lat="47.21785" lon="-1.67226">
        <ele>56.4</ele>
        <time>2019-08-13T10:21:16Z</time>
      </trkpt>
      <trkpt lat="47.21788" lon="-1.67225">
        <ele>56.6</ele>
        <time>2019-08-13T10:21:15Z</time>
      </trkpt>
      <trkpt lat="47.2179" lon="-1.67212">
        <ele>56.8</ele>
        <time>2019-08-13T10:21:13Z</time>
      </trkpt>
      <trkpt lat="47.21787" lon="-1.67189">
        <ele>56.8</ele>
        <time>2019-08-13T10:21:11Z</time>
      </trkpt>
      <trkpt lat="47.21783" lon="-1.67163">
        <ele>56.8</ele>
        <time>2019-08-13T10:21:09Z</time>
      </trkpt>
      <trkpt lat="47.21771" lon="-1.67108">
        <ele>56.2</ele>
        <time>2019-08-13T10:21:04Z</time>
      </trkpt>
      <trkpt lat="47.21768" lon="-1.67084">
        <ele>56.2</ele>
        <time>2019-08-13T10:21:02Z</time>
      </trkpt>
      <trkpt lat="47.21763" lon="-1.67038">
        <ele>57</ele>
        <time>2019-08-13T10:20:58Z</time>
      </trkpt>
      <trkpt lat="47.21763" lon="-1.67027">
        <ele>57.4</ele>
        <time>2019-08-13T10:20:57Z</time>
      </trkpt>
      <trkpt lat="47.21763" lon="-1.67009">
        <ele>58.6</ele>
        <time>2019-08-13T10:20:55Z</time>
      </trkpt>
      <trkpt lat="47.21769" lon="-1.66994">
        <ele>58.6</ele>
        <time>2019-08-13T10:20:53Z</time>
      </trkpt>
      <trkpt lat="47.21773" lon="-1.66987">
        <ele>59</ele>
        <time>2019-08-13T10:20:52Z</time>
      </trkpt>
      <trkpt lat="47.21784" lon="-1.66974">
        <ele>60</ele>
        <time>2019-08-13T10:20:50Z</time>
      </trkpt>
      <trkpt lat="47.21791" lon="-1.6697">
        <ele>60</ele>
        <time>2019-08-13T10:20:48Z</time>
      </trkpt>
      <trkpt lat="47.21804" lon="-1.66963">
        <ele>60.6</ele>
        <time>2019-08-13T10:20:47Z</time>
      </trkpt>
      <trkpt lat="47.21809" lon="-1.66958">
        <ele>61.4</ele>
        <time>2019-08-13T10:20:46Z</time>
      </trkpt>
      <trkpt lat="47.21814" lon="-1.66952">
        <ele>62.4</ele>
        <time>2019-08-13T10:20:45Z</time>
      </trkpt>
      <trkpt lat="47.21818" lon="-1.66945">
        <ele>63.8</ele>
        <time>2019-08-13T10:20:44Z</time>
      </trkpt>
      <trkpt lat="47.21823" lon="-1.66935">
        <ele>65</ele>
        <time>2019-08-13T10:20:43Z</time>
      </trkpt>
      <trkpt lat="47.21829" lon="-1.66925">
        <ele>66.2</ele>
        <time>2019-08-13T10:20:42Z</time>
      </trkpt>
      <trkpt lat="47.21836" lon="-1.66914">
        <ele>67.4</ele>
        <time>2019-08-13T10:20:41Z</time>
      </trkpt>
      <trkpt lat="47.21843" lon="-1.66903">
        <ele>68.4</ele>
        <time>2019-08-13T10:20:40Z</time>
      </trkpt>
      <trkpt lat="47.2185" lon="-1.66892">
        <ele>69.6</ele>
        <time>2019-08-13T10:20:39Z</time>
      </trkpt>
      <trkpt lat="47.21863" lon="-1.66871">
        <ele>70.6</ele>
        <time>2019-08-13T10:20:37Z</time>
      </trkpt>
      <trkpt lat="47.21893" lon="-1.66826">
        <ele>71.8</ele>
        <time>2019-08-13T10:20:31Z</time>
      </trkpt>
      <trkpt lat="47.21911" lon="-1.66804">
        <ele>70.6</ele>
        <time>2019-08-13T10:20:29Z</time>
      </trkpt>
      <trkpt lat="47.21961" lon="-1.6677">
        <ele>70.8</ele>
        <time>2019-08-13T10:20:22Z</time>
      </trkpt>
      <trkpt lat="47.21968" lon="-1.66764">
        <ele>71.6</ele>
        <time>2019-08-13T10:20:21Z</time>
      </trkpt>
      <trkpt lat="47.2202" lon="-1.66719">
        <ele>72.8</ele>
        <time>2019-08-13T10:20:14Z</time>
      </trkpt>
      <trkpt lat="47.22075" lon="-1.66673">
        <ele>72</ele>
        <time>2019-08-13T10:20:07Z</time>
      </trkpt>
      <trkpt lat="47.22114" lon="-1.66646">
        <ele>71.6</ele>
        <time>2019-08-13T10:20:02Z</time>
      </trkpt>
      <trkpt lat="47.22169" lon="-1.66626">
        <ele>70.6</ele>
        <time>2019-08-13T10:19:55Z</time>
      </trkpt>
      <trkpt lat="47.22183" lon="-1.66617">
        <ele>71</ele>
        <time>2019-08-13T10:19:53Z</time>
      </trkpt>
      <trkpt lat="47.22187" lon="-1.66602">
        <ele>71</ele>
        <time>2019-08-13T10:19:51Z</time>
      </trkpt>
      <trkpt lat="47.22186" lon="-1.66593">
        <ele>70.8</ele>
        <time>2019-08-13T10:19:50Z</time>
      </trkpt>
      <trkpt lat="47.22168" lon="-1.66535">
        <ele>70.4</ele>
        <time>2019-08-13T10:19:44Z</time>
      </trkpt>
      <trkpt lat="47.22148" lon="-1.66453">
        <ele>70.2</ele>
        <time>2019-08-13T10:19:36Z</time>
      </trkpt>
      <trkpt lat="47.22147" lon="-1.66433">
        <ele>70.4</ele>
        <time>2019-08-13T10:19:34Z</time>
      </trkpt>
      <trkpt lat="47.22146" lon="-1.66413">
        <ele>70.2</ele>
        <time>2019-08-13T10:19:32Z</time>
      </trkpt>
      <trkpt lat="47.22142" lon="-1.66394">
        <ele>69.8</ele>
        <time>2019-08-13T10:19:30Z</time>
      </trkpt>
      <trkpt lat="47.22138" lon="-1.66353">
        <ele>68.4</ele>
        <time>2019-08-13T10:19:26Z</time>
      </trkpt>
      <trkpt lat="47.22129" lon="-1.66273">
        <ele>68.8</ele>
        <time>2019-08-13T10:19:18Z</time>
      </trkpt>
      <trkpt lat="47.22124" lon="-1.66233">
        <ele>67.6</ele>
        <time>2019-08-13T10:19:14Z</time>
      </trkpt>
      <trkpt lat="47.22121" lon="-1.66204">
        <ele>67</ele>
        <time>2019-08-13T10:19:11Z</time>
      </trkpt>
      <trkpt lat="47.22118" lon="-1.66185">
        <ele>66.4</ele>
        <time>2019-08-13T10:19:09Z</time>
      </trkpt>
      <trkpt lat="47.22105" lon="-1.66124">
        <ele>65.2</ele>
        <time>2019-08-13T10:19:03Z</time>
      </trkpt>
      <trkpt lat="47.22094" lon="-1.66082">
        <ele>64</ele>
        <time>2019-08-13T10:18:59Z</time>
      </trkpt>
      <trkpt lat="47.22088" lon="-1.66063">
        <ele>63.6</ele>
        <time>2019-08-13T10:18:57Z</time>
      </trkpt>
      <trkpt lat="47.22061" lon="-1.6605">
        <ele>63.2</ele>
        <time>2019-08-13T10:18:50Z</time>
      </trkpt>
      <trkpt lat="47.22054" lon="-1.6605">
        <ele>63.4</ele>
        <time>2019-08-13T10:18:49Z</time>
      </trkpt>
      <trkpt lat="47.22002" lon="-1.6608">
        <ele>62.6</ele>
        <time>2019-08-13T10:18:39Z</time>
      </trkpt>
      <trkpt lat="47.21985" lon="-1.6611">
        <ele>62.8</ele>
        <time>2019-08-13T10:18:32Z</time>
      </trkpt>
      <trkpt lat="47.21984" lon="-1.66112">
        <ele>62.4</ele>
        <time>2019-08-13T10:18:31Z</time>
      </trkpt>
      <trkpt lat="47.21949" lon="-1.66119">
        <ele>61.8</ele>
        <time>2019-08-13T10:18:24Z</time>
      </trkpt>
      <trkpt lat="47.21943" lon="-1.66121">
        <ele>62</ele>
        <time>2019-08-13T10:18:23Z</time>
      </trkpt>
      <trkpt lat="47.2193" lon="-1.66127">
        <ele>62.6</ele>
        <time>2019-08-13T10:18:21Z</time>
      </trkpt>
      <trkpt lat="47.21914" lon="-1.66147">
        <ele>63</ele>
        <time>2019-08-13T10:18:17Z</time>
      </trkpt>
      <trkpt lat="47.2191" lon="-1.66153">
        <ele>62.6</ele>
        <time>2019-08-13T10:18:16Z</time>
      </trkpt>
      <trkpt lat="47.21877" lon="-1.66204">
        <ele>62.2</ele>
        <time>2019-08-13T10:18:08Z</time>
      </trkpt>
      <trkpt lat="47.21869" lon="-1.66219">
        <ele>61.8</ele>
        <time>2019-08-13T10:18:05Z</time>
      </trkpt>
      <trkpt lat="47.21857" lon="-1.66237">
        <ele>60.6</ele>
        <time>2019-08-13T10:18:01Z</time>
      </trkpt>
      <trkpt lat="47.21849" lon="-1.66246">
        <ele>60.4</ele>
        <time>2019-08-13T10:17:59Z</time>
      </trkpt>
      <trkpt lat="47.21844" lon="-1.66253">
        <ele>60.6</ele>
        <time>2019-08-13T10:17:57Z</time>
      </trkpt>
      <trkpt lat="47.21822" lon="-1.66273">
        <ele>61.6</ele>
        <time>2019-08-13T10:17:54Z</time>
      </trkpt>
      <trkpt lat="47.21776" lon="-1.66283">
        <ele>63</ele>
        <time>2019-08-13T10:17:43Z</time>
      </trkpt>
      <trkpt lat="47.21764" lon="-1.66289">
        <ele>62.2</ele>
        <time>2019-08-13T10:17:40Z</time>
      </trkpt>
      <trkpt lat="47.2176" lon="-1.66291">
        <ele>61.8</ele>
        <time>2019-08-13T10:17:39Z</time>
      </trkpt>
      <trkpt lat="47.2175" lon="-1.66298">
        <ele>60.2</ele>
        <time>2019-08-13T10:17:36Z</time>
      </trkpt>
      <trkpt lat="47.2174" lon="-1.66302">
        <ele>59</ele>
        <time>2019-08-13T10:17:33Z</time>
      </trkpt>
      <trkpt lat="47.2173" lon="-1.66306">
        <ele>57.8</ele>
        <time>2019-08-13T10:17:30Z</time>
      </trkpt>
      <trkpt lat="47.21721" lon="-1.6631">
        <ele>56.4</ele>
        <time>2019-08-13T10:17:27Z</time>
      </trkpt>
      <trkpt lat="47.21717" lon="-1.66313">
        <ele>55.4</ele>
        <time>2019-08-13T10:17:25Z</time>
      </trkpt>
      <trkpt lat="47.21715" lon="-1.66316">
        <ele>54.2</ele>
        <time>2019-08-13T10:17:23Z</time>
      </trkpt>
      <trkpt lat="47.21711" lon="-1.66321">
        <ele>53</ele>
        <time>2019-08-13T10:17:21Z</time>
      </trkpt>
      <trkpt lat="47.21705" lon="-1.66331">
        <ele>51.8</ele>
        <time>2019-08-13T10:17:19Z</time>
      </trkpt>
      <trkpt lat="47.21703" lon="-1.66335">
        <ele>50.4</ele>
        <time>2019-08-13T10:17:17Z</time>
      </trkpt>
      <trkpt lat="47.217" lon="-1.66342">
        <ele>49.4</ele>
        <time>2019-08-13T10:17:15Z</time>
      </trkpt>
      <trkpt lat="47.21695" lon="-1.66355">
        <ele>48</ele>
        <time>2019-08-13T10:17:12Z</time>
      </trkpt>
      <trkpt lat="47.2169" lon="-1.66369">
        <ele>46.6</ele>
        <time>2019-08-13T10:17:07Z</time>
      </trkpt>
      <trkpt lat="47.21683" lon="-1.66384">
        <ele>46.2</ele>
        <time>2019-08-13T10:17:04Z</time>
      </trkpt>
      <trkpt lat="47.2166" lon="-1.66431">
        <ele>45.6</ele>
        <time>2019-08-13T10:16:57Z</time>
      </trkpt>
      <trkpt lat="47.21652" lon="-1.66446">
        <ele>45</ele>
        <time>2019-08-13T10:16:55Z</time>
      </trkpt>
      <trkpt lat="47.21645" lon="-1.66461">
        <ele>44.6</ele>
        <time>2019-08-13T10:16:54Z</time>
      </trkpt>
      <trkpt lat="47.21633" lon="-1.66478">
        <ele>43.4</ele>
        <time>2019-08-13T10:16:52Z</time>
      </trkpt>
      <trkpt lat="47.21622" lon="-1.66493">
        <ele>42</ele>
        <time>2019-08-13T10:16:49Z</time>
      </trkpt>
      <trkpt lat="47.21612" lon="-1.66504">
        <ele>41.6</ele>
        <time>2019-08-13T10:16:47Z</time>
      </trkpt>
      <trkpt lat="47.21578" lon="-1.66532">
        <ele>40.4</ele>
        <time>2019-08-13T10:16:40Z</time>
      </trkpt>
      <trkpt lat="47.21564" lon="-1.66541">
        <ele>41</ele>
        <time>2019-08-13T10:16:37Z</time>
      </trkpt>
      <trkpt lat="47.21552" lon="-1.66538">
        <ele>42</ele>
        <time>2019-08-13T10:16:34Z</time>
      </trkpt>
      <trkpt lat="47.21548" lon="-1.66532">
        <ele>42.8</ele>
        <time>2019-08-13T10:16:32Z</time>
      </trkpt>
      <trkpt lat="47.21547" lon="-1.66529">
        <ele>43.2</ele>
        <time>2019-08-13T10:16:31Z</time>
      </trkpt>
      <trkpt lat="47.21539" lon="-1.66515">
        <ele>44.4</ele>
        <time>2019-08-13T10:16:26Z</time>
      </trkpt>
      <trkpt lat="47.21534" lon="-1.66485">
        <ele>44</ele>
        <time>2019-08-13T10:16:21Z</time>
      </trkpt>
      <trkpt lat="47.21534" lon="-1.66477">
        <ele>44.6</ele>
        <time>2019-08-13T10:16:20Z</time>
      </trkpt>
      <trkpt lat="47.21534" lon="-1.66471">
        <ele>45</ele>
        <time>2019-08-13T10:16:19Z</time>
      </trkpt>
      <trkpt lat="47.21533" lon="-1.66463">
        <ele>45.8</ele>
        <time>2019-08-13T10:16:18Z</time>
      </trkpt>
      <trkpt lat="47.21535" lon="-1.66442">
        <ele>47.4</ele>
        <time>2019-08-13T10:16:15Z</time>
      </trkpt>
      <trkpt lat="47.21535" lon="-1.66432">
        <ele>49</ele>
        <time>2019-08-13T10:16:13Z</time>
      </trkpt>
      <trkpt lat="47.21529" lon="-1.66415">
        <ele>50</ele>
        <time>2019-08-13T10:16:10Z</time>
      </trkpt>
      <trkpt lat="47.21528" lon="-1.66407">
        <ele>50.6</ele>
        <time>2019-08-13T10:16:08Z</time>
      </trkpt>
      <trkpt lat="47.21526" lon="-1.66391">
        <ele>51</ele>
        <time>2019-08-13T10:16:07Z</time>
      </trkpt>
      <trkpt lat="47.21525" lon="-1.66376">
        <ele>51.6</ele>
        <time>2019-08-13T10:16:05Z</time>
      </trkpt>
      <trkpt lat="47.21525" lon="-1.66368">
        <ele>52</ele>
        <time>2019-08-13T10:16:04Z</time>
      </trkpt>
      <trkpt lat="47.21528" lon="-1.6635">
        <ele>53</ele>
        <time>2019-08-13T10:16:02Z</time>
      </trkpt>
      <trkpt lat="47.21531" lon="-1.66337">
        <ele>54</ele>
        <time>2019-08-13T10:16:00Z</time>
      </trkpt>
      <trkpt lat="47.21532" lon="-1.66331">
        <ele>54.2</ele>
        <time>2019-08-13T10:15:59Z</time>
      </trkpt>
      <trkpt lat="47.21531" lon="-1.6632">
        <ele>54.6</ele>
        <time>2019-08-13T10:15:57Z</time>
      </trkpt>
      <trkpt lat="47.21537" lon="-1.66304">
        <ele>54.6</ele>
        <time>2019-08-13T10:15:54Z</time>
      </trkpt>
      <trkpt lat="47.21539" lon="-1.66288">
        <ele>54.4</ele>
        <time>2019-08-13T10:15:51Z</time>
      </trkpt>
      <trkpt lat="47.21535" lon="-1.66284">
        <ele>54.2</ele>
        <time>2019-08-13T10:15:49Z</time>
      </trkpt>
      <trkpt lat="47.21529" lon="-1.66267">
        <ele>53</ele>
        <time>2019-08-13T10:15:45Z</time>
      </trkpt>
      <trkpt lat="47.21524" lon="-1.66265">
        <ele>51.8</ele>
        <time>2019-08-13T10:15:43Z</time>
      </trkpt>
      <trkpt lat="47.21519" lon="-1.66266">
        <ele>50.2</ele>
        <time>2019-08-13T10:15:41Z</time>
      </trkpt>
      <trkpt lat="47.21515" lon="-1.66271">
        <ele>49</ele>
        <time>2019-08-13T10:15:39Z</time>
      </trkpt>
      <trkpt lat="47.21514" lon="-1.66274">
        <ele>47.6</ele>
        <time>2019-08-13T10:15:37Z</time>
      </trkpt>
      <trkpt lat="47.21512" lon="-1.66279">
        <ele>46.4</ele>
        <time>2019-08-13T10:15:35Z</time>
      </trkpt>
      <trkpt lat="47.21504" lon="-1.66296">
        <ele>45.2</ele>
        <time>2019-08-13T10:15:31Z</time>
      </trkpt>
      <trkpt lat="47.21502" lon="-1.66302">
        <ele>43.8</ele>
        <time>2019-08-13T10:15:29Z</time>
      </trkpt>
      <trkpt lat="47.21497" lon="-1.66313">
        <ele>42.4</ele>
        <time>2019-08-13T10:15:26Z</time>
      </trkpt>
      <trkpt lat="47.21495" lon="-1.66316">
        <ele>41.2</ele>
        <time>2019-08-13T10:15:24Z</time>
      </trkpt>
      <trkpt lat="47.21494" lon="-1.66319">
        <ele>40.6</ele>
        <time>2019-08-13T10:15:23Z</time>
      </trkpt>
      <trkpt lat="47.21486" lon="-1.66324">
        <ele>39.6</ele>
        <time>2019-08-13T10:15:20Z</time>
      </trkpt>
      <trkpt lat="47.21476" lon="-1.66319">
        <ele>39.6</ele>
        <time>2019-08-13T10:15:18Z</time>
      </trkpt>
      <trkpt lat="47.21471" lon="-1.66312">
        <ele>40</ele>
        <time>2019-08-13T10:15:17Z</time>
      </trkpt>
      <trkpt lat="47.21466" lon="-1.66304">
        <ele>41.2</ele>
        <time>2019-08-13T10:15:16Z</time>
      </trkpt>
      <trkpt lat="47.21463" lon="-1.663">
        <ele>42.4</ele>
        <time>2019-08-13T10:15:15Z</time>
      </trkpt>
      <trkpt lat="47.2146" lon="-1.66295">
        <ele>43.4</ele>
        <time>2019-08-13T10:15:14Z</time>
      </trkpt>
      <trkpt lat="47.21447" lon="-1.66274">
        <ele>44.8</ele>
        <time>2019-08-13T10:15:12Z</time>
      </trkpt>
      <trkpt lat="47.21413" lon="-1.66218">
        <ele>46.2</ele>
        <time>2019-08-13T10:15:08Z</time>
      </trkpt>
      <trkpt lat="47.21399" lon="-1.66193">
        <ele>47.2</ele>
        <time>2019-08-13T10:15:05Z</time>
      </trkpt>
      <trkpt lat="47.21387" lon="-1.66168">
        <ele>49</ele>
        <time>2019-08-13T10:15:03Z</time>
      </trkpt>
      <trkpt lat="47.21375" lon="-1.66143">
        <ele>50.8</ele>
        <time>2019-08-13T10:15:01Z</time>
      </trkpt>
      <trkpt lat="47.21355" lon="-1.66097">
        <ele>52.6</ele>
        <time>2019-08-13T10:14:58Z</time>
      </trkpt>
      <trkpt lat="47.21348" lon="-1.66082">
        <ele>53.2</ele>
        <time>2019-08-13T10:14:57Z</time>
      </trkpt>
      <trkpt lat="47.21345" lon="-1.66069">
        <ele>53.8</ele>
        <time>2019-08-13T10:14:56Z</time>
      </trkpt>
      <trkpt lat="47.2134" lon="-1.66043">
        <ele>55.2</ele>
        <time>2019-08-13T10:14:53Z</time>
      </trkpt>
      <trkpt lat="47.21331" lon="-1.66004">
        <ele>56.4</ele>
        <time>2019-08-13T10:14:51Z</time>
      </trkpt>
      <trkpt lat="47.21311" lon="-1.65934">
        <ele>57.6</ele>
        <time>2019-08-13T10:14:44Z</time>
      </trkpt>
      <trkpt lat="47.21286" lon="-1.65857">
        <ele>58.6</ele>
        <time>2019-08-13T10:14:37Z</time>
      </trkpt>
      <trkpt lat="47.21254" lon="-1.65787">
        <ele>57.2</ele>
        <time>2019-08-13T10:14:30Z</time>
      </trkpt>
      <trkpt lat="47.21235" lon="-1.65721">
        <ele>57.4</ele>
        <time>2019-08-13T10:14:24Z</time>
      </trkpt>
      <trkpt lat="47.21231" lon="-1.65697">
        <ele>57.6</ele>
        <time>2019-08-13T10:14:22Z</time>
      </trkpt>
      <trkpt lat="47.21218" lon="-1.65615">
        <ele>58.2</ele>
        <time>2019-08-13T10:14:16Z</time>
      </trkpt>
      <trkpt lat="47.21219" lon="-1.65575">
        <ele>58.6</ele>
        <time>2019-08-13T10:14:12Z</time>
      </trkpt>
      <trkpt lat="47.21222" lon="-1.65558">
        <ele>57.4</ele>
        <time>2019-08-13T10:14:10Z</time>
      </trkpt>
      <trkpt lat="47.21226" lon="-1.65528">
        <ele>56.4</ele>
        <time>2019-08-13T10:14:07Z</time>
      </trkpt>
      <trkpt lat="47.21227" lon="-1.65506">
        <ele>55.6</ele>
        <time>2019-08-13T10:14:04Z</time>
      </trkpt>
      <trkpt lat="47.21217" lon="-1.6543">
        <ele>55.2</ele>
        <time>2019-08-13T10:13:57Z</time>
      </trkpt>
      <trkpt lat="47.21207" lon="-1.65355">
        <ele>53.8</ele>
        <time>2019-08-13T10:13:51Z</time>
      </trkpt>
      <trkpt lat="47.21202" lon="-1.65329">
        <ele>54.2</ele>
        <time>2019-08-13T10:13:49Z</time>
      </trkpt>
      <trkpt lat="47.21199" lon="-1.65317">
        <ele>54.6</ele>
        <time>2019-08-13T10:13:48Z</time>
      </trkpt>
      <trkpt lat="47.21193" lon="-1.65291">
        <ele>55.2</ele>
        <time>2019-08-13T10:13:46Z</time>
      </trkpt>
      <trkpt lat="47.21179" lon="-1.65239">
        <ele>56.2</ele>
        <time>2019-08-13T10:13:42Z</time>
      </trkpt>
      <trkpt lat="47.21178" lon="-1.65228">
        <ele>56.4</ele>
        <time>2019-08-13T10:13:41Z</time>
      </trkpt>
      <trkpt lat="47.21178" lon="-1.65216">
        <ele>56.8</ele>
        <time>2019-08-13T10:13:39Z</time>
      </trkpt>
      <trkpt lat="47.21163" lon="-1.65129">
        <ele>57.4</ele>
        <time>2019-08-13T10:13:31Z</time>
      </trkpt>
      <trkpt lat="47.21158" lon="-1.65095">
        <ele>56.2</ele>
        <time>2019-08-13T10:13:28Z</time>
      </trkpt>
      <trkpt lat="47.21151" lon="-1.65062">
        <ele>54.6</ele>
        <time>2019-08-13T10:13:26Z</time>
      </trkpt>
      <trkpt lat="47.21149" lon="-1.65051">
        <ele>53.6</ele>
        <time>2019-08-13T10:13:24Z</time>
      </trkpt>
      <trkpt lat="47.21145" lon="-1.65028">
        <ele>52</ele>
        <time>2019-08-13T10:13:22Z</time>
      </trkpt>
      <trkpt lat="47.21137" lon="-1.64996">
        <ele>50.4</ele>
        <time>2019-08-13T10:13:20Z</time>
      </trkpt>
      <trkpt lat="47.21134" lon="-1.64986">
        <ele>49.6</ele>
        <time>2019-08-13T10:13:19Z</time>
      </trkpt>
      <trkpt lat="47.21129" lon="-1.64966">
        <ele>49</ele>
        <time>2019-08-13T10:13:17Z</time>
      </trkpt>
      <trkpt lat="47.21126" lon="-1.64957">
        <ele>49</ele>
        <time>2019-08-13T10:13:15Z</time>
      </trkpt>
      <trkpt lat="47.21125" lon="-1.64913">
        <ele>50.4</ele>
        <time>2019-08-13T10:13:12Z</time>
      </trkpt>
      <trkpt lat="47.21124" lon="-1.64904">
        <ele>50.6</ele>
        <time>2019-08-13T10:13:11Z</time>
      </trkpt>
      <trkpt lat="47.211" lon="-1.6488">
        <ele>50.6</ele>
        <time>2019-08-13T10:13:07Z</time>
      </trkpt>
      <trkpt lat="47.21065" lon="-1.64811">
        <ele>51.6</ele>
        <time>2019-08-13T10:13:00Z</time>
      </trkpt>
      <trkpt lat="47.21065" lon="-1.64811">
        <ele>51.6</ele>
        <time>2019-08-13T10:12:59Z</time>
      </trkpt>
      <trkpt lat="47.21042" lon="-1.64731">
        <ele>52.6</ele>
        <time>2019-08-13T10:12:52Z</time>
      </trkpt>
      <trkpt lat="47.21029" lon="-1.64648">
        <ele>54.4</ele>
        <time>2019-08-13T10:12:45Z</time>
      </trkpt>
      <trkpt lat="47.21027" lon="-1.64626">
        <ele>53.8</ele>
        <time>2019-08-13T10:12:43Z</time>
      </trkpt>
      <trkpt lat="47.21028" lon="-1.64593">
        <ele>53.6</ele>
        <time>2019-08-13T10:12:40Z</time>
      </trkpt>
      <trkpt lat="47.21027" lon="-1.64563">
        <ele>53.8</ele>
        <time>2019-08-13T10:12:37Z</time>
      </trkpt>
      <trkpt lat="47.21026" lon="-1.64552">
        <ele>54</ele>
        <time>2019-08-13T10:12:36Z</time>
      </trkpt>
      <trkpt lat="47.21024" lon="-1.64532">
        <ele>54.6</ele>
        <time>2019-08-13T10:12:34Z</time>
      </trkpt>
      <trkpt lat="47.2102" lon="-1.64498">
        <ele>54.8</ele>
        <time>2019-08-13T10:12:32Z</time>
      </trkpt>
      <trkpt lat="47.21007" lon="-1.64458">
        <ele>55</ele>
        <time>2019-08-13T10:12:27Z</time>
      </trkpt>
      <trkpt lat="47.2099" lon="-1.64392">
        <ele>56.4</ele>
        <time>2019-08-13T10:12:21Z</time>
      </trkpt>
      <trkpt lat="47.20987" lon="-1.64369">
        <ele>56.4</ele>
        <time>2019-08-13T10:12:19Z</time>
      </trkpt>
      <trkpt lat="47.20986" lon="-1.64345">
        <ele>57</ele>
        <time>2019-08-13T10:12:17Z</time>
      </trkpt>
      <trkpt lat="47.20979" lon="-1.64262">
        <ele>58.4</ele>
        <time>2019-08-13T10:12:10Z</time>
      </trkpt>
      <trkpt lat="47.2097" lon="-1.64232">
        <ele>58.6</ele>
        <time>2019-08-13T10:12:07Z</time>
      </trkpt>
      <trkpt lat="47.20946" lon="-1.6418">
        <ele>57.6</ele>
        <time>2019-08-13T10:12:02Z</time>
      </trkpt>
      <trkpt lat="47.20943" lon="-1.64171">
        <ele>57.2</ele>
        <time>2019-08-13T10:12:01Z</time>
      </trkpt>
      <trkpt lat="47.20913" lon="-1.64104">
        <ele>56.4</ele>
        <time>2019-08-13T10:11:52Z</time>
      </trkpt>
      <trkpt lat="47.20906" lon="-1.64088">
        <ele>55.8</ele>
        <time>2019-08-13T10:11:50Z</time>
      </trkpt>
      <trkpt lat="47.20896" lon="-1.64064">
        <ele>55.2</ele>
        <time>2019-08-13T10:11:47Z</time>
      </trkpt>
      <trkpt lat="47.20893" lon="-1.64057">
        <ele>55</ele>
        <time>2019-08-13T10:11:46Z</time>
      </trkpt>
      <trkpt lat="47.20872" lon="-1.63999">
        <ele>54</ele>
        <time>2019-08-13T10:11:39Z</time>
      </trkpt>
      <trkpt lat="47.20862" lon="-1.63955">
        <ele>53</ele>
        <time>2019-08-13T10:11:35Z</time>
      </trkpt>
      <trkpt lat="47.2086" lon="-1.63947">
        <ele>52.4</ele>
        <time>2019-08-13T10:11:33Z</time>
      </trkpt>
      <trkpt lat="47.20851" lon="-1.63913">
        <ele>51.6</ele>
        <time>2019-08-13T10:11:30Z</time>
      </trkpt>
      <trkpt lat="47.20849" lon="-1.63905">
        <ele>50.4</ele>
        <time>2019-08-13T10:11:28Z</time>
      </trkpt>
      <trkpt lat="47.20839" lon="-1.63865">
        <ele>49</ele>
        <time>2019-08-13T10:11:23Z</time>
      </trkpt>
      <trkpt lat="47.20834" lon="-1.63849">
        <ele>48.2</ele>
        <time>2019-08-13T10:11:21Z</time>
      </trkpt>
      <trkpt lat="47.20829" lon="-1.63832">
        <ele>47.6</ele>
        <time>2019-08-13T10:11:19Z</time>
      </trkpt>
      <trkpt lat="47.20826" lon="-1.63818">
        <ele>46.4</ele>
        <time>2019-08-13T10:11:17Z</time>
      </trkpt>
      <trkpt lat="47.20822" lon="-1.63805">
        <ele>45.8</ele>
        <time>2019-08-13T10:11:16Z</time>
      </trkpt>
      <trkpt lat="47.20818" lon="-1.63786">
        <ele>45.2</ele>
        <time>2019-08-13T10:11:14Z</time>
      </trkpt>
      <trkpt lat="47.20816" lon="-1.63766">
        <ele>45</ele>
        <time>2019-08-13T10:11:12Z</time>
      </trkpt>
      <trkpt lat="47.20816" lon="-1.63721">
        <ele>44.2</ele>
        <time>2019-08-13T10:11:08Z</time>
      </trkpt>
      <trkpt lat="47.2083" lon="-1.63657">
        <ele>44.8</ele>
        <time>2019-08-13T10:11:01Z</time>
      </trkpt>
      <trkpt lat="47.20833" lon="-1.63647">
        <ele>44.6</ele>
        <time>2019-08-13T10:10:59Z</time>
      </trkpt>
      <trkpt lat="47.2084" lon="-1.63627">
        <ele>44.4</ele>
        <time>2019-08-13T10:10:57Z</time>
      </trkpt>
      <trkpt lat="47.20876" lon="-1.63561">
        <ele>44</ele>
        <time>2019-08-13T10:10:50Z</time>
      </trkpt>
      <trkpt lat="47.20893" lon="-1.63538">
        <ele>43.6</ele>
        <time>2019-08-13T10:10:48Z</time>
      </trkpt>
      <trkpt lat="47.20909" lon="-1.63531">
        <ele>43.8</ele>
        <time>2019-08-13T10:10:46Z</time>
      </trkpt>
      <trkpt lat="47.20918" lon="-1.63528">
        <ele>44</ele>
        <time>2019-08-13T10:10:44Z</time>
      </trkpt>
      <trkpt lat="47.20944" lon="-1.6352">
        <ele>45.2</ele>
        <time>2019-08-13T10:10:42Z</time>
      </trkpt>
      <trkpt lat="47.20994" lon="-1.63515">
        <ele>46.4</ele>
        <time>2019-08-13T10:10:35Z</time>
      </trkpt>
      <trkpt lat="47.21019" lon="-1.63511">
        <ele>45.8</ele>
        <time>2019-08-13T10:10:32Z</time>
      </trkpt>
      <trkpt lat="47.21073" lon="-1.63502">
        <ele>45.2</ele>
        <time>2019-08-13T10:10:25Z</time>
      </trkpt>
      <trkpt lat="47.21086" lon="-1.63501">
        <ele>44.8</ele>
        <time>2019-08-13T10:10:24Z</time>
      </trkpt>
      <trkpt lat="47.21093" lon="-1.63488">
        <ele>44.2</ele>
        <time>2019-08-13T10:10:22Z</time>
      </trkpt>
      <trkpt lat="47.21098" lon="-1.63442">
        <ele>44.2</ele>
        <time>2019-08-13T10:10:17Z</time>
      </trkpt>
      <trkpt lat="47.21098" lon="-1.63434">
        <ele>44.2</ele>
        <time>2019-08-13T10:10:15Z</time>
      </trkpt>
      <trkpt lat="47.21096" lon="-1.63409">
        <ele>45.2</ele>
        <time>2019-08-13T10:10:13Z</time>
      </trkpt>
      <trkpt lat="47.21107" lon="-1.63381">
        <ele>46.6</ele>
        <time>2019-08-13T10:10:10Z</time>
      </trkpt>
      <trkpt lat="47.21118" lon="-1.63331">
        <ele>47.8</ele>
        <time>2019-08-13T10:10:05Z</time>
      </trkpt>
      <trkpt lat="47.21122" lon="-1.63291">
        <ele>49</ele>
        <time>2019-08-13T10:10:02Z</time>
      </trkpt>
      <trkpt lat="47.21123" lon="-1.63252">
        <ele>49.8</ele>
        <time>2019-08-13T10:10:00Z</time>
      </trkpt>
      <trkpt lat="47.21125" lon="-1.6324">
        <ele>50.2</ele>
        <time>2019-08-13T10:09:59Z</time>
      </trkpt>
      <trkpt lat="47.21129" lon="-1.6323">
        <ele>50.4</ele>
        <time>2019-08-13T10:09:58Z</time>
      </trkpt>
      <trkpt lat="47.21142" lon="-1.63215">
        <ele>50.8</ele>
        <time>2019-08-13T10:09:56Z</time>
      </trkpt>
      <trkpt lat="47.2115" lon="-1.6321">
        <ele>51.2</ele>
        <time>2019-08-13T10:09:55Z</time>
      </trkpt>
      <trkpt lat="47.21158" lon="-1.63208">
        <ele>52</ele>
        <time>2019-08-13T10:09:54Z</time>
      </trkpt>
      <trkpt lat="47.21167" lon="-1.63208">
        <ele>52.8</ele>
        <time>2019-08-13T10:09:53Z</time>
      </trkpt>
      <trkpt lat="47.21185" lon="-1.63203">
        <ele>54.2</ele>
        <time>2019-08-13T10:09:51Z</time>
      </trkpt>
      <trkpt lat="47.21199" lon="-1.63197">
        <ele>54.6</ele>
        <time>2019-08-13T10:09:48Z</time>
      </trkpt>
      <trkpt lat="47.21261" lon="-1.63189">
        <ele>55.4</ele>
        <time>2019-08-13T10:09:42Z</time>
      </trkpt>
      <trkpt lat="47.21277" lon="-1.63195">
        <ele>55.8</ele>
        <time>2019-08-13T10:09:40Z</time>
      </trkpt>
      <trkpt lat="47.21293" lon="-1.63198">
        <ele>55.8</ele>
        <time>2019-08-13T10:09:38Z</time>
      </trkpt>
      <trkpt lat="47.21334" lon="-1.63192">
        <ele>55.4</ele>
        <time>2019-08-13T10:09:32Z</time>
      </trkpt>
      <trkpt lat="47.2134" lon="-1.63192">
        <ele>55</ele>
        <time>2019-08-13T10:09:31Z</time>
      </trkpt>
      <trkpt lat="47.21367" lon="-1.63207">
        <ele>53.2</ele>
        <time>2019-08-13T10:09:27Z</time>
      </trkpt>
      <trkpt lat="47.21385" lon="-1.63214">
        <ele>53.6</ele>
        <time>2019-08-13T10:09:25Z</time>
      </trkpt>
      <trkpt lat="47.21394" lon="-1.63215">
        <ele>54.2</ele>
        <time>2019-08-13T10:09:24Z</time>
      </trkpt>
      <trkpt lat="47.21403" lon="-1.63215">
        <ele>54.8</ele>
        <time>2019-08-13T10:09:23Z</time>
      </trkpt>
      <trkpt lat="47.21413" lon="-1.63211">
        <ele>55.4</ele>
        <time>2019-08-13T10:09:22Z</time>
      </trkpt>
      <trkpt lat="47.21428" lon="-1.63201">
        <ele>56.8</ele>
        <time>2019-08-13T10:09:20Z</time>
      </trkpt>
      <trkpt lat="47.21441" lon="-1.63192">
        <ele>57.6</ele>
        <time>2019-08-13T10:09:18Z</time>
      </trkpt>
      <trkpt lat="47.21451" lon="-1.63175">
        <ele>58</ele>
        <time>2019-08-13T10:09:16Z</time>
      </trkpt>
      <trkpt lat="47.21456" lon="-1.63165">
        <ele>58.4</ele>
        <time>2019-08-13T10:09:15Z</time>
      </trkpt>
      <trkpt lat="47.21469" lon="-1.63149">
        <ele>59</ele>
        <time>2019-08-13T10:09:13Z</time>
      </trkpt>
      <trkpt lat="47.21476" lon="-1.63144">
        <ele>59.2</ele>
        <time>2019-08-13T10:09:12Z</time>
      </trkpt>
      <trkpt lat="47.21483" lon="-1.63139">
        <ele>59.8</ele>
        <time>2019-08-13T10:09:11Z</time>
      </trkpt>
      <trkpt lat="47.21492" lon="-1.63135">
        <ele>60.2</ele>
        <time>2019-08-13T10:09:10Z</time>
      </trkpt>
      <trkpt lat="47.21517" lon="-1.63131">
        <ele>61.6</ele>
        <time>2019-08-13T10:09:07Z</time>
      </trkpt>
      <trkpt lat="47.21532" lon="-1.63134">
        <ele>62.6</ele>
        <time>2019-08-13T10:09:05Z</time>
      </trkpt>
      <trkpt lat="47.21548" lon="-1.63145">
        <ele>64</ele>
        <time>2019-08-13T10:09:03Z</time>
      </trkpt>
      <trkpt lat="47.21566" lon="-1.63167">
        <ele>65</ele>
        <time>2019-08-13T10:09:00Z</time>
      </trkpt>
      <trkpt lat="47.21579" lon="-1.63181">
        <ele>66.2</ele>
        <time>2019-08-13T10:08:58Z</time>
      </trkpt>
      <trkpt lat="47.21611" lon="-1.63206">
        <ele>68</ele>
        <time>2019-08-13T10:08:52Z</time>
      </trkpt>
      <trkpt lat="47.21632" lon="-1.63219">
        <ele>67.8</ele>
        <time>2019-08-13T10:08:49Z</time>
      </trkpt>
      <trkpt lat="47.21652" lon="-1.63232">
        <ele>67.8</ele>
        <time>2019-08-13T10:08:47Z</time>
      </trkpt>
      <trkpt lat="47.21665" lon="-1.63236">
        <ele>68.2</ele>
        <time>2019-08-13T10:08:45Z</time>
      </trkpt>
      <trkpt lat="47.21682" lon="-1.63237">
        <ele>68.8</ele>
        <time>2019-08-13T10:08:42Z</time>
      </trkpt>
      <trkpt lat="47.21693" lon="-1.63245">
        <ele>69.2</ele>
        <time>2019-08-13T10:08:40Z</time>
      </trkpt>
      <trkpt lat="47.21706" lon="-1.63255">
        <ele>69.4</ele>
        <time>2019-08-13T10:08:38Z</time>
      </trkpt>
      <trkpt lat="47.21723" lon="-1.63255">
        <ele>69.6</ele>
        <time>2019-08-13T10:08:35Z</time>
      </trkpt>
      <trkpt lat="47.2174" lon="-1.63252">
        <ele>70</ele>
        <time>2019-08-13T10:08:34Z</time>
      </trkpt>
      <trkpt lat="47.21789" lon="-1.6323">
        <ele>71.4</ele>
        <time>2019-08-13T10:08:28Z</time>
      </trkpt>
      <trkpt lat="47.21806" lon="-1.63227">
        <ele>71.2</ele>
        <time>2019-08-13T10:08:26Z</time>
      </trkpt>
      <trkpt lat="47.21825" lon="-1.63228">
        <ele>70.4</ele>
        <time>2019-08-13T10:08:23Z</time>
      </trkpt>
      <trkpt lat="47.2183" lon="-1.63223">
        <ele>70.4</ele>
        <time>2019-08-13T10:08:21Z</time>
      </trkpt>
      <trkpt lat="47.21834" lon="-1.63167">
        <ele>70</ele>
        <time>2019-08-13T10:08:14Z</time>
      </trkpt>
      <trkpt lat="47.21834" lon="-1.63162">
        <ele>70.2</ele>
        <time>2019-08-13T10:08:13Z</time>
      </trkpt>
      <trkpt lat="47.21842" lon="-1.63112">
        <ele>71.4</ele>
        <time>2019-08-13T10:08:07Z</time>
      </trkpt>
      <trkpt lat="47.21855" lon="-1.63068">
        <ele>70</ele>
        <time>2019-08-13T10:08:03Z</time>
      </trkpt>
      <trkpt lat="47.21871" lon="-1.6304">
        <ele>69.8</ele>
        <time>2019-08-13T10:08:00Z</time>
      </trkpt>
      <trkpt lat="47.21887" lon="-1.63014">
        <ele>71.4</ele>
        <time>2019-08-13T10:07:57Z</time>
      </trkpt>
      <trkpt lat="47.21887" lon="-1.63014">
        <ele>71.6</ele>
        <time>2019-08-13T10:07:56Z</time>
      </trkpt>
      <trkpt lat="47.21926" lon="-1.62948">
        <ele>72.4</ele>
        <time>2019-08-13T10:07:50Z</time>
      </trkpt>
      <trkpt lat="47.21949" lon="-1.62912">
        <ele>71.2</ele>
        <time>2019-08-13T10:07:46Z</time>
      </trkpt>
      <trkpt lat="47.21956" lon="-1.62906">
        <ele>70.6</ele>
        <time>2019-08-13T10:07:45Z</time>
      </trkpt>
      <trkpt lat="47.21968" lon="-1.62895">
        <ele>70.2</ele>
        <time>2019-08-13T10:07:43Z</time>
      </trkpt>
      <trkpt lat="47.2201" lon="-1.62872">
        <ele>69.8</ele>
        <time>2019-08-13T10:07:36Z</time>
      </trkpt>
      <trkpt lat="47.22032" lon="-1.62857">
        <ele>68.2</ele>
        <time>2019-08-13T10:07:33Z</time>
      </trkpt>
      <trkpt lat="47.22041" lon="-1.62845">
        <ele>67.8</ele>
        <time>2019-08-13T10:07:31Z</time>
      </trkpt>
      <trkpt lat="47.22042" lon="-1.62828">
        <ele>68.4</ele>
        <time>2019-08-13T10:07:29Z</time>
      </trkpt>
      <trkpt lat="47.22036" lon="-1.62796">
        <ele>69.4</ele>
        <time>2019-08-13T10:07:26Z</time>
      </trkpt>
      <trkpt lat="47.22034" lon="-1.62785">
        <ele>69.6</ele>
        <time>2019-08-13T10:07:25Z</time>
      </trkpt>
      <trkpt lat="47.22031" lon="-1.62774">
        <ele>70.2</ele>
        <time>2019-08-13T10:07:23Z</time>
      </trkpt>
      <trkpt lat="47.22026" lon="-1.62736">
        <ele>70.2</ele>
        <time>2019-08-13T10:07:20Z</time>
      </trkpt>
      <trkpt lat="47.22038" lon="-1.62729">
        <ele>70.2</ele>
        <time>2019-08-13T10:07:17Z</time>
      </trkpt>
      <trkpt lat="47.22045" lon="-1.6272">
        <ele>70.6</ele>
        <time>2019-08-13T10:07:15Z</time>
      </trkpt>
      <trkpt lat="47.22048" lon="-1.62714">
        <ele>71</ele>
        <time>2019-08-13T10:07:14Z</time>
      </trkpt>
      <trkpt lat="47.22053" lon="-1.62708">
        <ele>71.4</ele>
        <time>2019-08-13T10:07:13Z</time>
      </trkpt>
      <trkpt lat="47.22103" lon="-1.62685">
        <ele>72</ele>
        <time>2019-08-13T10:07:06Z</time>
      </trkpt>
      <trkpt lat="47.22146" lon="-1.62669">
        <ele>71</ele>
        <time>2019-08-13T10:07:01Z</time>
      </trkpt>
      <trkpt lat="47.22199" lon="-1.6265">
        <ele>70.8</ele>
        <time>2019-08-13T10:06:54Z</time>
      </trkpt>
      <trkpt lat="47.22205" lon="-1.62643">
        <ele>69.8</ele>
        <time>2019-08-13T10:06:52Z</time>
      </trkpt>
      <trkpt lat="47.22205" lon="-1.62639">
        <ele>71</ele>
        <time>2019-08-13T10:06:51Z</time>
      </trkpt>
      <trkpt lat="47.22202" lon="-1.62628">
        <ele>72.4</ele>
        <time>2019-08-13T10:06:48Z</time>
      </trkpt>
      <trkpt lat="47.22196" lon="-1.6261">
        <ele>73.4</ele>
        <time>2019-08-13T10:06:46Z</time>
      </trkpt>
      <trkpt lat="47.22196" lon="-1.6261">
        <ele>73.4</ele>
        <time>2019-08-13T10:06:46Z</time>
      </trkpt>
    </trkseg>
  </trk>
</gpx>